<?xml version='1.0' encoding='UTF-8'?>
<gpx version="1.1" creator="https://www.komoot.de" xmlns="http://www.topografix.com/GPX/1/1" xmlns:xsi="http://www.w3.org/2001/XMLSchema-instance" xsi:schemaLocation="http://www.topografix.com/GPX/1/1 http://www.topografix.com/GPX/1/1/gpx.xsd">
  <metadata>
    <name>45_600SiflueAsp</name>
    <author>
      <link href="https://www.komoot.de">
        <text>komoot</text>
        <type>text/html</type>
      </link>
    </author>
  </metadata>
  <trk>
    <name>45_600SiflueAsp</name>
    <trkseg>
      <trkpt lat="47.541521" lon="7.870517">
        <ele>339.022574</ele>
        <time>2021-11-07T14:12:56.935Z</time>
      </trkpt>
      <trkpt lat="47.541521" lon="7.870517">
        <ele>339.022574</ele>
        <time>2021-11-07T14:12:56.959Z</time>
      </trkpt>
      <trkpt lat="47.541606" lon="7.870424">
        <ele>339.022574</ele>
        <time>2021-11-07T14:12:58.698Z</time>
      </trkpt>
      <trkpt lat="47.541910" lon="7.870106">
        <ele>339.022574</ele>
        <time>2021-11-07T14:13:04.559Z</time>
      </trkpt>
      <trkpt lat="47.542014" lon="7.870126">
        <ele>339.022574</ele>
        <time>2021-11-07T14:13:06.155Z</time>
      </trkpt>
      <trkpt lat="47.542118" lon="7.870135">
        <ele>339.022574</ele>
        <time>2021-11-07T14:13:07.818Z</time>
      </trkpt>
      <trkpt lat="47.542181" lon="7.870131">
        <ele>339.022574</ele>
        <time>2021-11-07T14:13:08.705Z</time>
      </trkpt>
      <trkpt lat="47.542317" lon="7.870012">
        <ele>339.012286</ele>
        <time>2021-11-07T14:13:10.957Z</time>
      </trkpt>
      <trkpt lat="47.542348" lon="7.869983">
        <ele>338.968231</ele>
        <time>2021-11-07T14:13:11.416Z</time>
      </trkpt>
      <trkpt lat="47.542329" lon="7.869820">
        <ele>338.834061</ele>
        <time>2021-11-07T14:13:13.107Z</time>
      </trkpt>
      <trkpt lat="47.542372" lon="7.869746">
        <ele>338.754863</ele>
        <time>2021-11-07T14:13:13.939Z</time>
      </trkpt>
      <trkpt lat="47.542657" lon="7.869354">
        <ele>338.287562</ele>
        <time>2021-11-07T14:13:18.803Z</time>
      </trkpt>
      <trkpt lat="47.542696" lon="7.869257">
        <ele>338.195985</ele>
        <time>2021-11-07T14:13:19.738Z</time>
      </trkpt>
      <trkpt lat="47.542722" lon="7.869201">
        <ele>338.140856</ele>
        <time>2021-11-07T14:13:20.329Z</time>
      </trkpt>
      <trkpt lat="47.543049" lon="7.868759">
        <ele>337.608958</ele>
        <time>2021-11-07T14:13:25.242Z</time>
      </trkpt>
      <trkpt lat="47.543105" lon="7.868711">
        <ele>337.531217</ele>
        <time>2021-11-07T14:13:25.980Z</time>
      </trkpt>
      <trkpt lat="47.543201" lon="7.868657">
        <ele>337.407830</ele>
        <time>2021-11-07T14:13:27.059Z</time>
      </trkpt>
      <trkpt lat="47.543657" lon="7.868359">
        <ele>336.816356</ele>
        <time>2021-11-07T14:13:32.854Z</time>
      </trkpt>
      <trkpt lat="47.543801" lon="7.868269">
        <ele>336.655063</ele>
        <time>2021-11-07T14:13:35.334Z</time>
      </trkpt>
      <trkpt lat="47.544214" lon="7.867988">
        <ele>336.186042</ele>
        <time>2021-11-07T14:13:42.950Z</time>
      </trkpt>
      <trkpt lat="47.544246" lon="7.867967">
        <ele>336.149923</ele>
        <time>2021-11-07T14:13:43.547Z</time>
      </trkpt>
      <trkpt lat="47.544410" lon="7.867825">
        <ele>335.953886</ele>
        <time>2021-11-07T14:13:46.800Z</time>
      </trkpt>
      <trkpt lat="47.544469" lon="7.867776">
        <ele>335.884082</ele>
        <time>2021-11-07T14:13:47.822Z</time>
      </trkpt>
      <trkpt lat="47.544568" lon="7.867693">
        <ele>335.766687</ele>
        <time>2021-11-07T14:13:49.749Z</time>
      </trkpt>
      <trkpt lat="47.545003" lon="7.867278">
        <ele>335.232732</ele>
        <time>2021-11-07T14:13:58.597Z</time>
      </trkpt>
      <trkpt lat="47.545160" lon="7.866985">
        <ele>335.048256</ele>
        <time>2021-11-07T14:14:03.248Z</time>
      </trkpt>
      <trkpt lat="47.545240" lon="7.866887">
        <ele>335.188154</ele>
        <time>2021-11-07T14:14:05.521Z</time>
      </trkpt>
      <trkpt lat="47.546096" lon="7.866147">
        <ele>336.523800</ele>
        <time>2021-11-07T14:14:30.591Z</time>
      </trkpt>
      <trkpt lat="47.546327" lon="7.865959">
        <ele>336.878993</ele>
        <time>2021-11-07T14:14:38.328Z</time>
      </trkpt>
      <trkpt lat="47.546510" lon="7.865766">
        <ele>337.181724</ele>
        <time>2021-11-07T14:14:45.430Z</time>
      </trkpt>
      <trkpt lat="47.546819" lon="7.865489">
        <ele>337.762243</ele>
        <time>2021-11-07T14:14:55.661Z</time>
      </trkpt>
      <trkpt lat="47.546889" lon="7.865225">
        <ele>338.121366</ele>
        <time>2021-11-07T14:15:00.852Z</time>
      </trkpt>
      <trkpt lat="47.546894" lon="7.864837">
        <ele>338.612714</ele>
        <time>2021-11-07T14:15:08.272Z</time>
      </trkpt>
      <trkpt lat="47.546885" lon="7.864500">
        <ele>339.039734</ele>
        <time>2021-11-07T14:15:15.060Z</time>
      </trkpt>
      <trkpt lat="47.546877" lon="7.864345">
        <ele>339.236557</ele>
        <time>2021-11-07T14:15:17.954Z</time>
      </trkpt>
      <trkpt lat="47.546592" lon="7.863006">
        <ele>340.848138</ele>
        <time>2021-11-07T14:15:43.963Z</time>
      </trkpt>
      <trkpt lat="47.546526" lon="7.861665">
        <ele>341.212036</ele>
        <time>2021-11-07T14:16:04.695Z</time>
      </trkpt>
      <trkpt lat="47.546487" lon="7.859119">
        <ele>341.205431</ele>
        <time>2021-11-07T14:16:37.316Z</time>
      </trkpt>
      <trkpt lat="47.546537" lon="7.857497">
        <ele>340.855305</ele>
        <time>2021-11-07T14:16:58.327Z</time>
      </trkpt>
      <trkpt lat="47.546582" lon="7.856413">
        <ele>340.672551</ele>
        <time>2021-11-07T14:17:12.681Z</time>
      </trkpt>
      <trkpt lat="47.546945" lon="7.851719">
        <ele>339.235518</ele>
        <time>2021-11-07T14:18:13.716Z</time>
      </trkpt>
      <trkpt lat="47.547141" lon="7.850355">
        <ele>338.089121</ele>
        <time>2021-11-07T14:18:29.281Z</time>
      </trkpt>
      <trkpt lat="47.547143" lon="7.849985">
        <ele>337.784955</ele>
        <time>2021-11-07T14:18:33.189Z</time>
      </trkpt>
      <trkpt lat="47.547124" lon="7.848795">
        <ele>336.209527</ele>
        <time>2021-11-07T14:18:45.787Z</time>
      </trkpt>
      <trkpt lat="47.547274" lon="7.845536">
        <ele>332.302403</ele>
        <time>2021-11-07T14:19:20.546Z</time>
      </trkpt>
      <trkpt lat="47.547295" lon="7.844722">
        <ele>331.442311</ele>
        <time>2021-11-07T14:19:30.029Z</time>
      </trkpt>
      <trkpt lat="47.547313" lon="7.843735">
        <ele>331.190391</ele>
        <time>2021-11-07T14:19:42.307Z</time>
      </trkpt>
      <trkpt lat="47.547354" lon="7.842839">
        <ele>331.064913</ele>
        <time>2021-11-07T14:19:54.598Z</time>
      </trkpt>
      <trkpt lat="47.547448" lon="7.842262">
        <ele>330.981978</ele>
        <time>2021-11-07T14:20:03.125Z</time>
      </trkpt>
      <trkpt lat="47.547549" lon="7.842268">
        <ele>330.961054</ele>
        <time>2021-11-07T14:20:05.139Z</time>
      </trkpt>
      <trkpt lat="47.547549" lon="7.842268">
        <ele>330.961054</ele>
        <time>2021-11-07T14:20:05.141Z</time>
      </trkpt>
      <trkpt lat="47.547549" lon="7.842268">
        <ele>330.961054</ele>
        <time>2021-11-07T14:20:05.155Z</time>
      </trkpt>
      <trkpt lat="47.547448" lon="7.842262">
        <ele>330.940130</ele>
        <time>2021-11-07T14:20:07.338Z</time>
      </trkpt>
      <trkpt lat="47.547362" lon="7.841665">
        <ele>330.647670</ele>
        <time>2021-11-07T14:20:15.536Z</time>
      </trkpt>
      <trkpt lat="47.547339" lon="7.841072">
        <ele>330.359525</ele>
        <time>2021-11-07T14:20:23.031Z</time>
      </trkpt>
      <trkpt lat="47.547332" lon="7.840572">
        <ele>330.116917</ele>
        <time>2021-11-07T14:20:29.089Z</time>
      </trkpt>
      <trkpt lat="47.547300" lon="7.838688">
        <ele>328.552352</ele>
        <time>2021-11-07T14:20:50.290Z</time>
      </trkpt>
      <trkpt lat="47.547276" lon="7.837287">
        <ele>326.875071</ele>
        <time>2021-11-07T14:21:05.166Z</time>
      </trkpt>
      <trkpt lat="47.547240" lon="7.836221">
        <ele>325.569276</ele>
        <time>2021-11-07T14:21:16.586Z</time>
      </trkpt>
      <trkpt lat="47.547190" lon="7.835066">
        <ele>324.138335</ele>
        <time>2021-11-07T14:21:29.092Z</time>
      </trkpt>
      <trkpt lat="47.547020" lon="7.831965">
        <ele>320.365175</ele>
        <time>2021-11-07T14:22:02.892Z</time>
      </trkpt>
      <trkpt lat="47.546946" lon="7.830852">
        <ele>318.910769</ele>
        <time>2021-11-07T14:22:14.923Z</time>
      </trkpt>
      <trkpt lat="47.546823" lon="7.829336">
        <ele>316.860429</ele>
        <time>2021-11-07T14:22:31.116Z</time>
      </trkpt>
      <trkpt lat="47.546721" lon="7.828140">
        <ele>315.123315</ele>
        <time>2021-11-07T14:22:43.827Z</time>
      </trkpt>
      <trkpt lat="47.546592" lon="7.826850">
        <ele>313.189114</ele>
        <time>2021-11-07T14:22:57.292Z</time>
      </trkpt>
      <trkpt lat="47.546574" lon="7.826239">
        <ele>312.334833</ele>
        <time>2021-11-07T14:23:03.738Z</time>
      </trkpt>
      <trkpt lat="47.546589" lon="7.825597">
        <ele>311.742923</ele>
        <time>2021-11-07T14:23:10.560Z</time>
      </trkpt>
      <trkpt lat="47.546693" lon="7.825618">
        <ele>311.599641</ele>
        <time>2021-11-07T14:23:12.227Z</time>
      </trkpt>
      <trkpt lat="47.547233" lon="7.825872">
        <ele>310.826229</ele>
        <time>2021-11-07T14:23:21.350Z</time>
      </trkpt>
      <trkpt lat="47.547666" lon="7.826091">
        <ele>310.201648</ele>
        <time>2021-11-07T14:23:29.049Z</time>
      </trkpt>
      <trkpt lat="47.548237" lon="7.826410">
        <ele>310.388744</ele>
        <time>2021-11-07T14:23:42.423Z</time>
      </trkpt>
      <trkpt lat="47.548679" lon="7.826710">
        <ele>310.858119</ele>
        <time>2021-11-07T14:23:53.722Z</time>
      </trkpt>
      <trkpt lat="47.549105" lon="7.827067">
        <ele>311.330633</ele>
        <time>2021-11-07T14:24:05.988Z</time>
      </trkpt>
      <trkpt lat="47.549143" lon="7.827110">
        <ele>311.376796</ele>
        <time>2021-11-07T14:24:07.998Z</time>
      </trkpt>
      <trkpt lat="47.550183" lon="7.828277">
        <ele>312.889075</ele>
        <time>2021-11-07T14:24:44.187Z</time>
      </trkpt>
      <trkpt lat="47.550522" lon="7.828744">
        <ele>313.456945</ele>
        <time>2021-11-07T14:24:56.070Z</time>
      </trkpt>
      <trkpt lat="47.550675" lon="7.828955">
        <ele>313.713370</ele>
        <time>2021-11-07T14:25:00.331Z</time>
      </trkpt>
      <trkpt lat="47.551640" lon="7.830558">
        <ele>312.847243</ele>
        <time>2021-11-07T14:25:27.107Z</time>
      </trkpt>
      <trkpt lat="47.552065" lon="7.831350">
        <ele>312.066480</ele>
        <time>2021-11-07T14:25:38.130Z</time>
      </trkpt>
      <trkpt lat="47.552251" lon="7.831814">
        <ele>311.310005</ele>
        <time>2021-11-07T14:25:43.870Z</time>
      </trkpt>
      <trkpt lat="47.552368" lon="7.832305">
        <ele>310.580119</ele>
        <time>2021-11-07T14:25:49.340Z</time>
      </trkpt>
      <trkpt lat="47.552458" lon="7.832824">
        <ele>309.828994</ele>
        <time>2021-11-07T14:25:54.940Z</time>
      </trkpt>
      <trkpt lat="47.552508" lon="7.832936">
        <ele>309.640764</ele>
        <time>2021-11-07T14:25:56.400Z</time>
      </trkpt>
      <trkpt lat="47.552556" lon="7.832977">
        <ele>309.525694</ele>
        <time>2021-11-07T14:25:57.365Z</time>
      </trkpt>
      <trkpt lat="47.552616" lon="7.832891">
        <ele>309.352315</ele>
        <time>2021-11-07T14:25:58.171Z</time>
      </trkpt>
      <trkpt lat="47.552690" lon="7.832598">
        <ele>308.913796</ele>
        <time>2021-11-07T14:26:00.494Z</time>
      </trkpt>
      <trkpt lat="47.552645" lon="7.830686">
        <ele>305.858383</ele>
        <time>2021-11-07T14:26:14.187Z</time>
      </trkpt>
      <trkpt lat="47.552554" lon="7.829266">
        <ele>303.828505</ele>
        <time>2021-11-07T14:26:24.474Z</time>
      </trkpt>
      <trkpt lat="47.552416" lon="7.828822">
        <ele>303.297455</ele>
        <time>2021-11-07T14:26:28.131Z</time>
      </trkpt>
      <trkpt lat="47.552404" lon="7.828582">
        <ele>303.036007</ele>
        <time>2021-11-07T14:26:30.040Z</time>
      </trkpt>
      <trkpt lat="47.552421" lon="7.828481">
        <ele>302.922920</ele>
        <time>2021-11-07T14:26:30.794Z</time>
      </trkpt>
      <trkpt lat="47.552477" lon="7.828294">
        <ele>302.700664</ele>
        <time>2021-11-07T14:26:32.368Z</time>
      </trkpt>
      <trkpt lat="47.552515" lon="7.828094">
        <ele>302.474940</ele>
        <time>2021-11-07T14:26:34.081Z</time>
      </trkpt>
      <trkpt lat="47.552491" lon="7.827227">
        <ele>301.532247</ele>
        <time>2021-11-07T14:26:40.983Z</time>
      </trkpt>
      <trkpt lat="47.552510" lon="7.826557">
        <ele>301.197685</ele>
        <time>2021-11-07T14:26:46.670Z</time>
      </trkpt>
      <trkpt lat="47.552567" lon="7.824508">
        <ele>300.238722</ele>
        <time>2021-11-07T14:27:04.851Z</time>
      </trkpt>
      <trkpt lat="47.552896" lon="7.820699">
        <ele>298.362512</ele>
        <time>2021-11-07T14:27:37.632Z</time>
      </trkpt>
      <trkpt lat="47.552948" lon="7.819358">
        <ele>297.733077</ele>
        <time>2021-11-07T14:27:49.171Z</time>
      </trkpt>
      <trkpt lat="47.552844" lon="7.816432">
        <ele>297.331841</ele>
        <time>2021-11-07T14:28:16.805Z</time>
      </trkpt>
      <trkpt lat="47.552711" lon="7.812955">
        <ele>298.595615</ele>
        <time>2021-11-07T14:28:57.555Z</time>
      </trkpt>
      <trkpt lat="47.552656" lon="7.811979">
        <ele>299.013574</ele>
        <time>2021-11-07T14:29:09.052Z</time>
      </trkpt>
      <trkpt lat="47.552566" lon="7.810386">
        <ele>299.722515</ele>
        <time>2021-11-07T14:29:27.590Z</time>
      </trkpt>
      <trkpt lat="47.552398" lon="7.808880">
        <ele>300.420803</ele>
        <time>2021-11-07T14:29:45.989Z</time>
      </trkpt>
      <trkpt lat="47.552068" lon="7.806445">
        <ele>300.892181</ele>
        <time>2021-11-07T14:30:14.312Z</time>
      </trkpt>
      <trkpt lat="47.552015" lon="7.806307">
        <ele>300.917183</ele>
        <time>2021-11-07T14:30:16.034Z</time>
      </trkpt>
      <trkpt lat="47.551895" lon="7.806278">
        <ele>300.945551</ele>
        <time>2021-11-07T14:30:17.344Z</time>
      </trkpt>
      <trkpt lat="47.551651" lon="7.806246">
        <ele>300.833939</ele>
        <time>2021-11-07T14:30:21.106Z</time>
      </trkpt>
      <trkpt lat="47.551671" lon="7.806117">
        <ele>300.766440</ele>
        <time>2021-11-07T14:30:22.421Z</time>
      </trkpt>
      <trkpt lat="47.551681" lon="7.805477">
        <ele>300.439973</ele>
        <time>2021-11-07T14:30:30.119Z</time>
      </trkpt>
      <trkpt lat="47.551709" lon="7.805000">
        <ele>300.195799</ele>
        <time>2021-11-07T14:30:35.763Z</time>
      </trkpt>
      <trkpt lat="47.551731" lon="7.804667">
        <ele>300.025168</ele>
        <time>2021-11-07T14:30:40.399Z</time>
      </trkpt>
      <trkpt lat="47.551744" lon="7.804473">
        <ele>299.925748</ele>
        <time>2021-11-07T14:30:42.404Z</time>
      </trkpt>
      <trkpt lat="47.551741" lon="7.804294">
        <ele>299.834436</ele>
        <time>2021-11-07T14:30:44.784Z</time>
      </trkpt>
      <trkpt lat="47.551692" lon="7.803510">
        <ele>299.585918</ele>
        <time>2021-11-07T14:30:53.936Z</time>
      </trkpt>
      <trkpt lat="47.551751" lon="7.803369">
        <ele>299.577045</ele>
        <time>2021-11-07T14:30:55.941Z</time>
      </trkpt>
      <trkpt lat="47.551744" lon="7.803277">
        <ele>299.572094</ele>
        <time>2021-11-07T14:30:56.760Z</time>
      </trkpt>
      <trkpt lat="47.551732" lon="7.803125">
        <ele>299.563909</ele>
        <time>2021-11-07T14:30:58.148Z</time>
      </trkpt>
      <trkpt lat="47.551666" lon="7.803144">
        <ele>299.558582</ele>
        <time>2021-11-07T14:31:02.815Z</time>
      </trkpt>
      <trkpt lat="47.551598" lon="7.803160">
        <ele>299.553126</ele>
        <time>2021-11-07T14:31:07.560Z</time>
      </trkpt>
      <trkpt lat="47.551163" lon="7.803129">
        <ele>299.518617</ele>
        <time>2021-11-07T14:31:16.585Z</time>
      </trkpt>
      <trkpt lat="47.550981" lon="7.803132">
        <ele>299.504195</ele>
        <time>2021-11-07T14:31:20.598Z</time>
      </trkpt>
      <trkpt lat="47.550665" lon="7.803127">
        <ele>299.479154</ele>
        <time>2021-11-07T14:31:27.584Z</time>
      </trkpt>
      <trkpt lat="47.550196" lon="7.803120">
        <ele>299.540706</ele>
        <time>2021-11-07T14:31:37.923Z</time>
      </trkpt>
      <trkpt lat="47.550134" lon="7.803051">
        <ele>299.565938</ele>
        <time>2021-11-07T14:31:39.606Z</time>
      </trkpt>
      <trkpt lat="47.550146" lon="7.802262">
        <ele>299.739265</ele>
        <time>2021-11-07T14:31:50.990Z</time>
      </trkpt>
      <trkpt lat="47.549879" lon="7.802247">
        <ele>299.826207</ele>
        <time>2021-11-07T14:31:56.768Z</time>
      </trkpt>
      <trkpt lat="47.549481" lon="7.802234">
        <ele>299.955746</ele>
        <time>2021-11-07T14:32:05.485Z</time>
      </trkpt>
      <trkpt lat="47.549410" lon="7.802226">
        <ele>299.978915</ele>
        <time>2021-11-07T14:32:07.087Z</time>
      </trkpt>
      <trkpt lat="47.548877" lon="7.802168">
        <ele>300.080221</ele>
        <time>2021-11-07T14:32:18.299Z</time>
      </trkpt>
      <trkpt lat="47.548626" lon="7.802129">
        <ele>300.106221</ele>
        <time>2021-11-07T14:32:23.506Z</time>
      </trkpt>
      <trkpt lat="47.548626" lon="7.802129">
        <ele>300.106221</ele>
        <time>2021-11-07T14:32:23.510Z</time>
      </trkpt>
      <trkpt lat="47.548626" lon="7.802129">
        <ele>300.106221</ele>
        <time>2021-11-07T14:32:23.517Z</time>
      </trkpt>
      <trkpt lat="47.548607" lon="7.801690">
        <ele>300.136809</ele>
        <time>2021-11-07T14:32:29.591Z</time>
      </trkpt>
      <trkpt lat="47.548596" lon="7.801213">
        <ele>300.169997</ele>
        <time>2021-11-07T14:32:36.123Z</time>
      </trkpt>
      <trkpt lat="47.548576" lon="7.800968">
        <ele>300.187157</ele>
        <time>2021-11-07T14:32:39.485Z</time>
      </trkpt>
      <trkpt lat="47.548569" lon="7.800838">
        <ele>300.196226</ele>
        <time>2021-11-07T14:32:41.251Z</time>
      </trkpt>
      <trkpt lat="47.548560" lon="7.800672">
        <ele>300.207806</ele>
        <time>2021-11-07T14:32:43.567Z</time>
      </trkpt>
      <trkpt lat="47.548545" lon="7.800404">
        <ele>300.226505</ele>
        <time>2021-11-07T14:32:47.214Z</time>
      </trkpt>
      <trkpt lat="47.548519" lon="7.799896">
        <ele>300.317934</ele>
        <time>2021-11-07T14:32:54.329Z</time>
      </trkpt>
      <trkpt lat="47.548514" lon="7.799795">
        <ele>300.338102</ele>
        <time>2021-11-07T14:32:55.733Z</time>
      </trkpt>
      <trkpt lat="47.548535" lon="7.799720">
        <ele>300.354273</ele>
        <time>2021-11-07T14:32:56.883Z</time>
      </trkpt>
      <trkpt lat="47.548459" lon="7.799691">
        <ele>300.377429</ele>
        <time>2021-11-07T14:32:58.530Z</time>
      </trkpt>
      <trkpt lat="47.547912" lon="7.799646">
        <ele>300.539071</ele>
        <time>2021-11-07T14:33:09.773Z</time>
      </trkpt>
      <trkpt lat="47.547540" lon="7.799538">
        <ele>300.650918</ele>
        <time>2021-11-07T14:33:17.733Z</time>
      </trkpt>
      <trkpt lat="47.546418" lon="7.798980">
        <ele>300.957523</ele>
        <time>2021-11-07T14:33:45.655Z</time>
      </trkpt>
      <trkpt lat="47.545807" lon="7.798846">
        <ele>301.107083</ele>
        <time>2021-11-07T14:33:57.873Z</time>
      </trkpt>
      <trkpt lat="47.545731" lon="7.798810">
        <ele>301.126404</ele>
        <time>2021-11-07T14:33:59.723Z</time>
      </trkpt>
      <trkpt lat="47.545664" lon="7.798714">
        <ele>301.148974</ele>
        <time>2021-11-07T14:34:01.399Z</time>
      </trkpt>
      <trkpt lat="47.545610" lon="7.798623">
        <ele>301.168778</ele>
        <time>2021-11-07T14:34:02.796Z</time>
      </trkpt>
      <trkpt lat="47.545590" lon="7.798505">
        <ele>301.188663</ele>
        <time>2021-11-07T14:34:04.391Z</time>
      </trkpt>
      <trkpt lat="47.545716" lon="7.797282">
        <ele>301.084572</ele>
        <time>2021-11-07T14:34:20.380Z</time>
      </trkpt>
      <trkpt lat="47.545768" lon="7.797090">
        <ele>301.064657</ele>
        <time>2021-11-07T14:34:23.030Z</time>
      </trkpt>
      <trkpt lat="47.545816" lon="7.796914">
        <ele>301.046384</ele>
        <time>2021-11-07T14:34:25.545Z</time>
      </trkpt>
      <trkpt lat="47.545914" lon="7.796629">
        <ele>301.015595</ele>
        <time>2021-11-07T14:34:30.219Z</time>
      </trkpt>
      <trkpt lat="47.546090" lon="7.796144">
        <ele>300.962588</ele>
        <time>2021-11-07T14:34:37.229Z</time>
      </trkpt>
      <trkpt lat="47.546173" lon="7.795918">
        <ele>300.955505</ele>
        <time>2021-11-07T14:34:40.622Z</time>
      </trkpt>
      <trkpt lat="47.546227" lon="7.795865">
        <ele>300.989528</ele>
        <time>2021-11-07T14:34:41.930Z</time>
      </trkpt>
      <trkpt lat="47.546254" lon="7.795798">
        <ele>301.017193</ele>
        <time>2021-11-07T14:34:43.031Z</time>
      </trkpt>
      <trkpt lat="47.546269" lon="7.795732">
        <ele>301.041883</ele>
        <time>2021-11-07T14:34:44.079Z</time>
      </trkpt>
      <trkpt lat="47.546238" lon="7.795632">
        <ele>301.080897</ele>
        <time>2021-11-07T14:34:45.542Z</time>
      </trkpt>
      <trkpt lat="47.546235" lon="7.795530">
        <ele>301.117093</ele>
        <time>2021-11-07T14:34:47.141Z</time>
      </trkpt>
      <trkpt lat="47.546153" lon="7.795241">
        <ele>301.228238</ele>
        <time>2021-11-07T14:34:52.156Z</time>
      </trkpt>
      <trkpt lat="47.545990" lon="7.794538">
        <ele>301.491771</ele>
        <time>2021-11-07T14:35:04.046Z</time>
      </trkpt>
      <trkpt lat="47.545976" lon="7.794190">
        <ele>301.615368</ele>
        <time>2021-11-07T14:35:09.979Z</time>
      </trkpt>
      <trkpt lat="47.546037" lon="7.793636">
        <ele>301.814377</ele>
        <time>2021-11-07T14:35:18.537Z</time>
      </trkpt>
      <trkpt lat="47.546092" lon="7.793269">
        <ele>301.817379</ele>
        <time>2021-11-07T14:35:24.104Z</time>
      </trkpt>
      <trkpt lat="47.546198" lon="7.792662">
        <ele>301.567576</ele>
        <time>2021-11-07T14:35:32.313Z</time>
      </trkpt>
      <trkpt lat="47.546327" lon="7.792116">
        <ele>301.337098</ele>
        <time>2021-11-07T14:35:39.442Z</time>
      </trkpt>
      <trkpt lat="47.546348" lon="7.792043">
        <ele>301.305482</ele>
        <time>2021-11-07T14:35:40.296Z</time>
      </trkpt>
      <trkpt lat="47.546349" lon="7.791963">
        <ele>301.273603</ele>
        <time>2021-11-07T14:35:41.169Z</time>
      </trkpt>
      <trkpt lat="47.546325" lon="7.791912">
        <ele>301.248833</ele>
        <time>2021-11-07T14:35:41.969Z</time>
      </trkpt>
      <trkpt lat="47.546715" lon="7.788946">
        <ele>299.736790</ele>
        <time>2021-11-07T14:36:17.178Z</time>
      </trkpt>
      <trkpt lat="47.546755" lon="7.788783">
        <ele>299.640384</ele>
        <time>2021-11-07T14:36:19.202Z</time>
      </trkpt>
      <trkpt lat="47.546744" lon="7.788656">
        <ele>299.569212</ele>
        <time>2021-11-07T14:36:21.252Z</time>
      </trkpt>
      <trkpt lat="47.546940" lon="7.787224">
        <ele>300.085514</ele>
        <time>2021-11-07T14:36:40.235Z</time>
      </trkpt>
      <trkpt lat="47.546897" lon="7.787133">
        <ele>300.163642</ele>
        <time>2021-11-07T14:36:42.120Z</time>
      </trkpt>
      <trkpt lat="47.546959" lon="7.786598">
        <ele>300.545433</ele>
        <time>2021-11-07T14:36:49.878Z</time>
      </trkpt>
      <trkpt lat="47.546952" lon="7.786540">
        <ele>300.586874</ele>
        <time>2021-11-07T14:36:50.833Z</time>
      </trkpt>
      <trkpt lat="47.546913" lon="7.786470">
        <ele>300.650712</ele>
        <time>2021-11-07T14:36:52.568Z</time>
      </trkpt>
      <trkpt lat="47.546526" lon="7.786353">
        <ele>301.062278</ele>
        <time>2021-11-07T14:37:03.870Z</time>
      </trkpt>
      <trkpt lat="47.546464" lon="7.786335">
        <ele>301.128111</ele>
        <time>2021-11-07T14:37:05.641Z</time>
      </trkpt>
      <trkpt lat="47.546417" lon="7.786331">
        <ele>301.177166</ele>
        <time>2021-11-07T14:37:06.855Z</time>
      </trkpt>
      <trkpt lat="47.546102" lon="7.786217">
        <ele>302.881808</ele>
        <time>2021-11-07T14:37:18.475Z</time>
      </trkpt>
      <trkpt lat="47.545856" lon="7.785973">
        <ele>304.608024</ele>
        <time>2021-11-07T14:37:30.772Z</time>
      </trkpt>
      <trkpt lat="47.545672" lon="7.785654">
        <ele>306.259541</ele>
        <time>2021-11-07T14:37:42.099Z</time>
      </trkpt>
      <trkpt lat="47.545624" lon="7.785548">
        <ele>306.761931</ele>
        <time>2021-11-07T14:37:48.763Z</time>
      </trkpt>
      <trkpt lat="47.545250" lon="7.784778">
        <ele>310.495650</ele>
        <time>2021-11-07T14:38:20.290Z</time>
      </trkpt>
      <trkpt lat="47.545240" lon="7.784746">
        <ele>310.634443</ele>
        <time>2021-11-07T14:38:22.969Z</time>
      </trkpt>
      <trkpt lat="47.545054" lon="7.784227">
        <ele>312.011045</ele>
        <time>2021-11-07T14:38:41.118Z</time>
      </trkpt>
      <trkpt lat="47.544950" lon="7.784008">
        <ele>312.270403</ele>
        <time>2021-11-07T14:38:47.449Z</time>
      </trkpt>
      <trkpt lat="47.544627" lon="7.783499">
        <ele>312.947072</ele>
        <time>2021-11-07T14:39:03.312Z</time>
      </trkpt>
      <trkpt lat="47.544555" lon="7.783372">
        <ele>313.107715</ele>
        <time>2021-11-07T14:39:05.389Z</time>
      </trkpt>
      <trkpt lat="47.544490" lon="7.783060">
        <ele>313.423985</ele>
        <time>2021-11-07T14:39:10.135Z</time>
      </trkpt>
      <trkpt lat="47.544474" lon="7.782623">
        <ele>313.847887</ele>
        <time>2021-11-07T14:39:15.143Z</time>
      </trkpt>
      <trkpt lat="47.544469" lon="7.782455">
        <ele>314.010770</ele>
        <time>2021-11-07T14:39:16.442Z</time>
      </trkpt>
      <trkpt lat="47.544461" lon="7.782254">
        <ele>314.205798</ele>
        <time>2021-11-07T14:39:17.707Z</time>
      </trkpt>
      <trkpt lat="47.544100" lon="7.779438">
        <ele>303.374684</ele>
        <time>2021-11-07T14:39:35.196Z</time>
      </trkpt>
      <trkpt lat="47.543933" lon="7.778374">
        <ele>300.751481</ele>
        <time>2021-11-07T14:39:42.266Z</time>
      </trkpt>
      <trkpt lat="47.543707" lon="7.777394">
        <ele>298.264596</ele>
        <time>2021-11-07T14:39:49.487Z</time>
      </trkpt>
      <trkpt lat="47.543527" lon="7.776532">
        <ele>297.086436</ele>
        <time>2021-11-07T14:39:56.631Z</time>
      </trkpt>
      <trkpt lat="47.543482" lon="7.776095">
        <ele>296.927261</ele>
        <time>2021-11-07T14:40:00.507Z</time>
      </trkpt>
      <trkpt lat="47.543449" lon="7.775478">
        <ele>296.704394</ele>
        <time>2021-11-07T14:40:06.250Z</time>
      </trkpt>
      <trkpt lat="47.543402" lon="7.775016">
        <ele>296.536158</ele>
        <time>2021-11-07T14:40:10.919Z</time>
      </trkpt>
      <trkpt lat="47.543350" lon="7.774507">
        <ele>296.350790</ele>
        <time>2021-11-07T14:40:16.157Z</time>
      </trkpt>
      <trkpt lat="47.543145" lon="7.773277">
        <ele>296.135642</ele>
        <time>2021-11-07T14:40:29.056Z</time>
      </trkpt>
      <trkpt lat="47.543108" lon="7.773069">
        <ele>296.104085</ele>
        <time>2021-11-07T14:40:31.236Z</time>
      </trkpt>
      <trkpt lat="47.542720" lon="7.770771">
        <ele>295.745739</ele>
        <time>2021-11-07T14:40:52.458Z</time>
      </trkpt>
      <trkpt lat="47.542450" lon="7.769311">
        <ele>295.508027</ele>
        <time>2021-11-07T14:41:06.430Z</time>
      </trkpt>
      <trkpt lat="47.542317" lon="7.768533">
        <ele>296.674045</ele>
        <time>2021-11-07T14:41:14.803Z</time>
      </trkpt>
      <trkpt lat="47.541697" lon="7.765479">
        <ele>305.190443</ele>
        <time>2021-11-07T14:42:17.069Z</time>
      </trkpt>
      <trkpt lat="47.541552" lon="7.764869">
        <ele>307.937190</ele>
        <time>2021-11-07T14:42:36.809Z</time>
      </trkpt>
      <trkpt lat="47.541443" lon="7.764512">
        <ele>309.601338</ele>
        <time>2021-11-07T14:42:50.660Z</time>
      </trkpt>
      <trkpt lat="47.541364" lon="7.764150">
        <ele>311.217192</ele>
        <time>2021-11-07T14:43:01.627Z</time>
      </trkpt>
      <trkpt lat="47.541377" lon="7.764045">
        <ele>311.850025</ele>
        <time>2021-11-07T14:43:06.190Z</time>
      </trkpt>
      <trkpt lat="47.541334" lon="7.764020">
        <ele>312.281991</ele>
        <time>2021-11-07T14:43:11.033Z</time>
      </trkpt>
      <trkpt lat="47.541219" lon="7.763853">
        <ele>313.787930</ele>
        <time>2021-11-07T14:43:17.621Z</time>
      </trkpt>
      <trkpt lat="47.541023" lon="7.762922">
        <ele>319.944210</ele>
        <time>2021-11-07T14:43:55.953Z</time>
      </trkpt>
      <trkpt lat="47.541004" lon="7.762306">
        <ele>323.836890</ele>
        <time>2021-11-07T14:44:18.771Z</time>
      </trkpt>
      <trkpt lat="47.540921" lon="7.761599">
        <ele>328.253646</ele>
        <time>2021-11-07T14:44:43.440Z</time>
      </trkpt>
      <trkpt lat="47.540567" lon="7.759901">
        <ele>334.298831</ele>
        <time>2021-11-07T14:45:28.114Z</time>
      </trkpt>
      <trkpt lat="47.540447" lon="7.759585">
        <ele>335.532163</ele>
        <time>2021-11-07T14:45:35.697Z</time>
      </trkpt>
      <trkpt lat="47.539949" lon="7.758688">
        <ele>336.612682</ele>
        <time>2021-11-07T14:45:53.942Z</time>
      </trkpt>
      <trkpt lat="47.539722" lon="7.758107">
        <ele>336.044423</ele>
        <time>2021-11-07T14:46:00.232Z</time>
      </trkpt>
      <trkpt lat="47.539595" lon="7.757548">
        <ele>335.545138</ele>
        <time>2021-11-07T14:46:04.625Z</time>
      </trkpt>
      <trkpt lat="47.539346" lon="7.755736">
        <ele>330.803949</ele>
        <time>2021-11-07T14:46:16.369Z</time>
      </trkpt>
      <trkpt lat="47.539230" lon="7.755294">
        <ele>329.059628</ele>
        <time>2021-11-07T14:46:19.261Z</time>
      </trkpt>
      <trkpt lat="47.539079" lon="7.754976">
        <ele>327.629570</ele>
        <time>2021-11-07T14:46:21.652Z</time>
      </trkpt>
      <trkpt lat="47.538792" lon="7.754549">
        <ele>325.413231</ele>
        <time>2021-11-07T14:46:25.386Z</time>
      </trkpt>
      <trkpt lat="47.538723" lon="7.754445">
        <ele>324.999772</ele>
        <time>2021-11-07T14:46:26.284Z</time>
      </trkpt>
      <trkpt lat="47.538494" lon="7.754103">
        <ele>324.091226</ele>
        <time>2021-11-07T14:46:29.444Z</time>
      </trkpt>
      <trkpt lat="47.538359" lon="7.753900">
        <ele>323.553763</ele>
        <time>2021-11-07T14:46:31.345Z</time>
      </trkpt>
      <trkpt lat="47.538052" lon="7.753460">
        <ele>322.360258</ele>
        <time>2021-11-07T14:46:35.752Z</time>
      </trkpt>
      <trkpt lat="47.537715" lon="7.753194">
        <ele>321.293377</ele>
        <time>2021-11-07T14:46:39.871Z</time>
      </trkpt>
      <trkpt lat="47.537564" lon="7.753073">
        <ele>320.813721</ele>
        <time>2021-11-07T14:46:41.773Z</time>
      </trkpt>
      <trkpt lat="47.537371" lon="7.752851">
        <ele>320.131005</ele>
        <time>2021-11-07T14:46:45.210Z</time>
      </trkpt>
      <trkpt lat="47.537134" lon="7.752309">
        <ele>319.956488</ele>
        <time>2021-11-07T14:46:51.498Z</time>
      </trkpt>
      <trkpt lat="47.535912" lon="7.749669">
        <ele>319.232360</ele>
        <time>2021-11-07T14:47:21.678Z</time>
      </trkpt>
      <trkpt lat="47.534874" lon="7.746551">
        <ele>318.608533</ele>
        <time>2021-11-07T14:47:53.527Z</time>
      </trkpt>
      <trkpt lat="47.534429" lon="7.744856">
        <ele>318.714351</ele>
        <time>2021-11-07T14:48:12.439Z</time>
      </trkpt>
      <trkpt lat="47.534370" lon="7.744709">
        <ele>318.746119</ele>
        <time>2021-11-07T14:48:14.086Z</time>
      </trkpt>
      <trkpt lat="47.534179" lon="7.744495">
        <ele>318.812014</ele>
        <time>2021-11-07T14:48:17.969Z</time>
      </trkpt>
      <trkpt lat="47.534097" lon="7.744343">
        <ele>318.848157</ele>
        <time>2021-11-07T14:48:19.980Z</time>
      </trkpt>
      <trkpt lat="47.534043" lon="7.744207">
        <ele>318.877466</ele>
        <time>2021-11-07T14:48:21.726Z</time>
      </trkpt>
      <trkpt lat="47.533870" lon="7.743466">
        <ele>319.059759</ele>
        <time>2021-11-07T14:48:30.504Z</time>
      </trkpt>
      <trkpt lat="47.533707" lon="7.742025">
        <ele>319.733756</ele>
        <time>2021-11-07T14:48:49.054Z</time>
      </trkpt>
      <trkpt lat="47.533352" lon="7.740430">
        <ele>319.674548</ele>
        <time>2021-11-07T14:49:08.175Z</time>
      </trkpt>
      <trkpt lat="47.533191" lon="7.739816">
        <ele>319.077127</ele>
        <time>2021-11-07T14:49:14.246Z</time>
      </trkpt>
      <trkpt lat="47.533153" lon="7.739664">
        <ele>318.930115</ele>
        <time>2021-11-07T14:49:15.543Z</time>
      </trkpt>
      <trkpt lat="47.531874" lon="7.736048">
        <ele>312.508020</ele>
        <time>2021-11-07T14:49:44.016Z</time>
      </trkpt>
      <trkpt lat="47.531710" lon="7.735855">
        <ele>312.157157</ele>
        <time>2021-11-07T14:49:46.202Z</time>
      </trkpt>
      <trkpt lat="47.531389" lon="7.735745">
        <ele>311.605270</ele>
        <time>2021-11-07T14:49:49.767Z</time>
      </trkpt>
      <trkpt lat="47.531325" lon="7.735684">
        <ele>311.477789</ele>
        <time>2021-11-07T14:49:50.479Z</time>
      </trkpt>
      <trkpt lat="47.530882" lon="7.735983">
        <ele>310.662334</ele>
        <time>2021-11-07T14:49:56.092Z</time>
      </trkpt>
      <trkpt lat="47.530193" lon="7.736351">
        <ele>309.714808</ele>
        <time>2021-11-07T14:50:05.510Z</time>
      </trkpt>
      <trkpt lat="47.529741" lon="7.736731">
        <ele>309.750534</ele>
        <time>2021-11-07T14:50:13.990Z</time>
      </trkpt>
      <trkpt lat="47.529603" lon="7.736896">
        <ele>309.762726</ele>
        <time>2021-11-07T14:50:17.225Z</time>
      </trkpt>
      <trkpt lat="47.529534" lon="7.737005">
        <ele>309.769660</ele>
        <time>2021-11-07T14:50:19.395Z</time>
      </trkpt>
      <trkpt lat="47.528997" lon="7.738134">
        <ele>309.753197</ele>
        <time>2021-11-07T14:50:33.370Z</time>
      </trkpt>
      <trkpt lat="47.528896" lon="7.738303">
        <ele>309.630224</ele>
        <time>2021-11-07T14:50:35.558Z</time>
      </trkpt>
      <trkpt lat="47.528842" lon="7.738378">
        <ele>309.570483</ele>
        <time>2021-11-07T14:50:36.377Z</time>
      </trkpt>
      <trkpt lat="47.528601" lon="7.738620">
        <ele>309.335516</ele>
        <time>2021-11-07T14:50:39.995Z</time>
      </trkpt>
      <trkpt lat="47.528341" lon="7.738762">
        <ele>309.111893</ele>
        <time>2021-11-07T14:50:43.449Z</time>
      </trkpt>
      <trkpt lat="47.528292" lon="7.738774">
        <ele>309.071815</ele>
        <time>2021-11-07T14:50:44.016Z</time>
      </trkpt>
      <trkpt lat="47.527841" lon="7.738820">
        <ele>308.707011</ele>
        <time>2021-11-07T14:50:51.694Z</time>
      </trkpt>
      <trkpt lat="47.527567" lon="7.738827">
        <ele>308.485869</ele>
        <time>2021-11-07T14:50:55.294Z</time>
      </trkpt>
      <trkpt lat="47.527349" lon="7.738840">
        <ele>308.359098</ele>
        <time>2021-11-07T14:50:57.950Z</time>
      </trkpt>
      <trkpt lat="47.527103" lon="7.738847">
        <ele>308.308425</ele>
        <time>2021-11-07T14:51:00.851Z</time>
      </trkpt>
      <trkpt lat="47.527005" lon="7.738861">
        <ele>308.288148</ele>
        <time>2021-11-07T14:51:02.569Z</time>
      </trkpt>
      <trkpt lat="47.527005" lon="7.738861">
        <ele>308.288148</ele>
        <time>2021-11-07T14:51:02.648Z</time>
      </trkpt>
      <trkpt lat="47.527000" lon="7.738933">
        <ele>308.278083</ele>
        <time>2021-11-07T14:51:03.725Z</time>
      </trkpt>
      <trkpt lat="47.527026" lon="7.739118">
        <ele>308.251804</ele>
        <time>2021-11-07T14:51:05.850Z</time>
      </trkpt>
      <trkpt lat="47.526836" lon="7.740302">
        <ele>308.082563</ele>
        <time>2021-11-07T14:51:21.541Z</time>
      </trkpt>
      <trkpt lat="47.526322" lon="7.742227">
        <ele>308.769114</ele>
        <time>2021-11-07T14:51:54.682Z</time>
      </trkpt>
      <trkpt lat="47.526138" lon="7.742917">
        <ele>309.142688</ele>
        <time>2021-11-07T14:52:06.169Z</time>
      </trkpt>
      <trkpt lat="47.525722" lon="7.745187">
        <ele>310.787965</ele>
        <time>2021-11-07T14:52:43.437Z</time>
      </trkpt>
      <trkpt lat="47.525664" lon="7.745297">
        <ele>310.891283</ele>
        <time>2021-11-07T14:52:45.665Z</time>
      </trkpt>
      <trkpt lat="47.525633" lon="7.745320">
        <ele>310.929296</ele>
        <time>2021-11-07T14:52:46.824Z</time>
      </trkpt>
      <trkpt lat="47.525483" lon="7.745349">
        <ele>311.095141</ele>
        <time>2021-11-07T14:52:50.479Z</time>
      </trkpt>
      <trkpt lat="47.525283" lon="7.745415">
        <ele>311.322696</ele>
        <time>2021-11-07T14:52:55.792Z</time>
      </trkpt>
      <trkpt lat="47.525259" lon="7.745437">
        <ele>311.444150</ele>
        <time>2021-11-07T14:52:56.351Z</time>
      </trkpt>
      <trkpt lat="47.525218" lon="7.745477">
        <ele>311.655413</ele>
        <time>2021-11-07T14:52:57.749Z</time>
      </trkpt>
      <trkpt lat="47.525175" lon="7.745921">
        <ele>312.958709</ele>
        <time>2021-11-07T14:53:06.447Z</time>
      </trkpt>
      <trkpt lat="47.525044" lon="7.746344">
        <ele>314.310882</ele>
        <time>2021-11-07T14:53:16.832Z</time>
      </trkpt>
      <trkpt lat="47.524901" lon="7.746625">
        <ele>315.333262</ele>
        <time>2021-11-07T14:53:25.199Z</time>
      </trkpt>
      <trkpt lat="47.524637" lon="7.747153">
        <ele>317.242225</ele>
        <time>2021-11-07T14:53:44.431Z</time>
      </trkpt>
      <trkpt lat="47.524503" lon="7.747489">
        <ele>318.376077</ele>
        <time>2021-11-07T14:53:55.066Z</time>
      </trkpt>
      <trkpt lat="47.524451" lon="7.747610">
        <ele>318.792822</ele>
        <time>2021-11-07T14:53:59.907Z</time>
      </trkpt>
      <trkpt lat="47.524391" lon="7.747617">
        <ele>319.051798</ele>
        <time>2021-11-07T14:54:03.781Z</time>
      </trkpt>
      <trkpt lat="47.524308" lon="7.747654">
        <ele>319.578240</ele>
        <time>2021-11-07T14:54:07.705Z</time>
      </trkpt>
      <trkpt lat="47.524287" lon="7.747676">
        <ele>319.735268</ele>
        <time>2021-11-07T14:54:09.040Z</time>
      </trkpt>
      <trkpt lat="47.524266" lon="7.747707">
        <ele>319.916275</ele>
        <time>2021-11-07T14:54:10.150Z</time>
      </trkpt>
      <trkpt lat="47.524248" lon="7.747742">
        <ele>320.097630</ele>
        <time>2021-11-07T14:54:11.261Z</time>
      </trkpt>
      <trkpt lat="47.524148" lon="7.747688">
        <ele>320.747396</ele>
        <time>2021-11-07T14:54:15.850Z</time>
      </trkpt>
      <trkpt lat="47.524137" lon="7.747681">
        <ele>320.820482</ele>
        <time>2021-11-07T14:54:16.769Z</time>
      </trkpt>
      <trkpt lat="47.524008" lon="7.747563">
        <ele>321.746076</ele>
        <time>2021-11-07T14:54:25.089Z</time>
      </trkpt>
      <trkpt lat="47.523866" lon="7.747399">
        <ele>322.845367</ele>
        <time>2021-11-07T14:54:32.373Z</time>
      </trkpt>
      <trkpt lat="47.523800" lon="7.747466">
        <ele>323.333839</ele>
        <time>2021-11-07T14:54:37.349Z</time>
      </trkpt>
      <trkpt lat="47.523614" lon="7.747952">
        <ele>325.636635</ele>
        <time>2021-11-07T14:54:53.250Z</time>
      </trkpt>
      <trkpt lat="47.523457" lon="7.748362">
        <ele>327.579588</ele>
        <time>2021-11-07T14:55:05.391Z</time>
      </trkpt>
      <trkpt lat="47.523389" lon="7.748492">
        <ele>328.257449</ele>
        <time>2021-11-07T14:55:10.657Z</time>
      </trkpt>
      <trkpt lat="47.523167" lon="7.748832">
        <ele>330.098974</ele>
        <time>2021-11-07T14:55:24.180Z</time>
      </trkpt>
      <trkpt lat="47.522173" lon="7.750378">
        <ele>333.274012</ele>
        <time>2021-11-07T14:56:06.104Z</time>
      </trkpt>
      <trkpt lat="47.521224" lon="7.751990">
        <ele>334.215737</ele>
        <time>2021-11-07T14:56:35.316Z</time>
      </trkpt>
      <trkpt lat="47.520973" lon="7.752161">
        <ele>334.269313</ele>
        <time>2021-11-07T14:56:41.107Z</time>
      </trkpt>
      <trkpt lat="47.520514" lon="7.752708">
        <ele>334.267277</ele>
        <time>2021-11-07T14:56:54.210Z</time>
      </trkpt>
      <trkpt lat="47.520447" lon="7.752826">
        <ele>334.220796</ele>
        <time>2021-11-07T14:56:55.959Z</time>
      </trkpt>
      <trkpt lat="47.520500" lon="7.752840">
        <ele>334.196761</ele>
        <time>2021-11-07T14:56:56.798Z</time>
      </trkpt>
      <trkpt lat="47.520081" lon="7.753575">
        <ele>333.906760</ele>
        <time>2021-11-07T14:57:05.563Z</time>
      </trkpt>
      <trkpt lat="47.519771" lon="7.754124">
        <ele>333.690998</ele>
        <time>2021-11-07T14:57:11.770Z</time>
      </trkpt>
      <trkpt lat="47.519558" lon="7.754516">
        <ele>333.536950</ele>
        <time>2021-11-07T14:57:15.951Z</time>
      </trkpt>
      <trkpt lat="47.518866" lon="7.755813">
        <ele>332.844526</ele>
        <time>2021-11-07T14:57:29.914Z</time>
      </trkpt>
      <trkpt lat="47.517863" lon="7.757421">
        <ele>332.776331</ele>
        <time>2021-11-07T14:57:50.625Z</time>
      </trkpt>
      <trkpt lat="47.516954" lon="7.758506">
        <ele>333.555633</ele>
        <time>2021-11-07T14:58:12.250Z</time>
      </trkpt>
      <trkpt lat="47.516501" lon="7.759179">
        <ele>334.834998</ele>
        <time>2021-11-07T14:58:25.365Z</time>
      </trkpt>
      <trkpt lat="47.515929" lon="7.760077">
        <ele>336.497059</ele>
        <time>2021-11-07T14:58:45.070Z</time>
      </trkpt>
      <trkpt lat="47.515394" lon="7.761200">
        <ele>339.524919</ele>
        <time>2021-11-07T14:59:11.882Z</time>
      </trkpt>
      <trkpt lat="47.515265" lon="7.761533">
        <ele>340.431546</ele>
        <time>2021-11-07T14:59:19.758Z</time>
      </trkpt>
      <trkpt lat="47.515220" lon="7.761710">
        <ele>340.878202</ele>
        <time>2021-11-07T14:59:23.626Z</time>
      </trkpt>
      <trkpt lat="47.515194" lon="7.761991">
        <ele>341.548039</ele>
        <time>2021-11-07T14:59:29.657Z</time>
      </trkpt>
      <trkpt lat="47.515150" lon="7.762617">
        <ele>343.034451</ele>
        <time>2021-11-07T14:59:41.777Z</time>
      </trkpt>
      <trkpt lat="47.515108" lon="7.762767">
        <ele>343.297540</ele>
        <time>2021-11-07T14:59:45.241Z</time>
      </trkpt>
      <trkpt lat="47.515023" lon="7.762891">
        <ele>343.568185</ele>
        <time>2021-11-07T14:59:48.971Z</time>
      </trkpt>
      <trkpt lat="47.514492" lon="7.763207">
        <ele>344.866186</ele>
        <time>2021-11-07T15:00:04.257Z</time>
      </trkpt>
      <trkpt lat="47.514365" lon="7.763357">
        <ele>345.234658</ele>
        <time>2021-11-07T15:00:08.608Z</time>
      </trkpt>
      <trkpt lat="47.514022" lon="7.763802">
        <ele>346.269026</ele>
        <time>2021-11-07T15:00:16.619Z</time>
      </trkpt>
      <trkpt lat="47.513823" lon="7.764227">
        <ele>347.061233</ele>
        <time>2021-11-07T15:00:23.744Z</time>
      </trkpt>
      <trkpt lat="47.513810" lon="7.764252">
        <ele>347.109566</ele>
        <time>2021-11-07T15:00:24.178Z</time>
      </trkpt>
      <trkpt lat="47.513747" lon="7.764397">
        <ele>347.292339</ele>
        <time>2021-11-07T15:00:26.651Z</time>
      </trkpt>
      <trkpt lat="47.513707" lon="7.764494">
        <ele>347.401746</ele>
        <time>2021-11-07T15:00:28.635Z</time>
      </trkpt>
      <trkpt lat="47.513661" lon="7.764590">
        <ele>347.515056</ele>
        <time>2021-11-07T15:00:30.563Z</time>
      </trkpt>
      <trkpt lat="47.513615" lon="7.764654">
        <ele>347.605025</ele>
        <time>2021-11-07T15:00:31.245Z</time>
      </trkpt>
      <trkpt lat="47.513036" lon="7.765134">
        <ele>348.550832</ele>
        <time>2021-11-07T15:00:46.149Z</time>
      </trkpt>
      <trkpt lat="47.512959" lon="7.765198">
        <ele>348.676691</ele>
        <time>2021-11-07T15:00:47.351Z</time>
      </trkpt>
      <trkpt lat="47.512947" lon="7.765205">
        <ele>348.695074</ele>
        <time>2021-11-07T15:00:47.579Z</time>
      </trkpt>
      <trkpt lat="47.512876" lon="7.765238">
        <ele>348.801140</ele>
        <time>2021-11-07T15:00:49.042Z</time>
      </trkpt>
      <trkpt lat="47.512596" lon="7.765294">
        <ele>349.203847</ele>
        <time>2021-11-07T15:00:54.546Z</time>
      </trkpt>
      <trkpt lat="47.512523" lon="7.765308">
        <ele>349.308763</ele>
        <time>2021-11-07T15:00:55.972Z</time>
      </trkpt>
      <trkpt lat="47.512359" lon="7.765319">
        <ele>349.542751</ele>
        <time>2021-11-07T15:00:59.875Z</time>
      </trkpt>
      <trkpt lat="47.512026" lon="7.765311">
        <ele>350.094513</ele>
        <time>2021-11-07T15:01:05.882Z</time>
      </trkpt>
      <trkpt lat="47.511929" lon="7.765269">
        <ele>350.275682</ele>
        <time>2021-11-07T15:01:08.171Z</time>
      </trkpt>
      <trkpt lat="47.511866" lon="7.765218">
        <ele>350.404397</ele>
        <time>2021-11-07T15:01:09.328Z</time>
      </trkpt>
      <trkpt lat="47.511702" lon="7.765093">
        <ele>350.735060</ele>
        <time>2021-11-07T15:01:13.676Z</time>
      </trkpt>
      <trkpt lat="47.511360" lon="7.764807">
        <ele>351.439181</ele>
        <time>2021-11-07T15:01:23.531Z</time>
      </trkpt>
      <trkpt lat="47.511298" lon="7.764777">
        <ele>351.556110</ele>
        <time>2021-11-07T15:01:25.440Z</time>
      </trkpt>
      <trkpt lat="47.511261" lon="7.764772">
        <ele>351.622713</ele>
        <time>2021-11-07T15:01:26.286Z</time>
      </trkpt>
      <trkpt lat="47.510922" lon="7.764773">
        <ele>352.230415</ele>
        <time>2021-11-07T15:01:34.170Z</time>
      </trkpt>
      <trkpt lat="47.510628" lon="7.764909">
        <ele>352.782576</ele>
        <time>2021-11-07T15:01:40.135Z</time>
      </trkpt>
      <trkpt lat="47.510486" lon="7.765012">
        <ele>353.142739</ele>
        <time>2021-11-07T15:01:43.310Z</time>
      </trkpt>
      <trkpt lat="47.510392" lon="7.765088">
        <ele>353.454106</ele>
        <time>2021-11-07T15:01:45.283Z</time>
      </trkpt>
      <trkpt lat="47.510179" lon="7.765273">
        <ele>354.172024</ele>
        <time>2021-11-07T15:01:49.904Z</time>
      </trkpt>
      <trkpt lat="47.510078" lon="7.765363">
        <ele>354.514730</ele>
        <time>2021-11-07T15:01:52.588Z</time>
      </trkpt>
      <trkpt lat="47.510019" lon="7.765402">
        <ele>354.702573</ele>
        <time>2021-11-07T15:01:53.976Z</time>
      </trkpt>
      <trkpt lat="47.509942" lon="7.765436">
        <ele>354.936168</ele>
        <time>2021-11-07T15:01:55.790Z</time>
      </trkpt>
      <trkpt lat="47.509899" lon="7.765445">
        <ele>355.062418</ele>
        <time>2021-11-07T15:01:56.787Z</time>
      </trkpt>
      <trkpt lat="47.509741" lon="7.765454">
        <ele>355.522088</ele>
        <time>2021-11-07T15:02:00.910Z</time>
      </trkpt>
      <trkpt lat="47.509600" lon="7.765443">
        <ele>355.932565</ele>
        <time>2021-11-07T15:02:05.199Z</time>
      </trkpt>
      <trkpt lat="47.509436" lon="7.765441">
        <ele>356.409354</ele>
        <time>2021-11-07T15:02:10.179Z</time>
      </trkpt>
      <trkpt lat="47.509057" lon="7.765447">
        <ele>357.511227</ele>
        <time>2021-11-07T15:02:22.717Z</time>
      </trkpt>
      <trkpt lat="47.508744" lon="7.765478">
        <ele>358.464385</ele>
        <time>2021-11-07T15:02:32.691Z</time>
      </trkpt>
      <trkpt lat="47.508322" lon="7.765556">
        <ele>359.903116</ele>
        <time>2021-11-07T15:02:45.353Z</time>
      </trkpt>
      <trkpt lat="47.508137" lon="7.765584">
        <ele>360.532243</ele>
        <time>2021-11-07T15:02:50.136Z</time>
      </trkpt>
      <trkpt lat="47.507977" lon="7.765561">
        <ele>361.076077</ele>
        <time>2021-11-07T15:02:54.353Z</time>
      </trkpt>
      <trkpt lat="47.507650" lon="7.765503">
        <ele>362.190246</ele>
        <time>2021-11-07T15:03:02.584Z</time>
      </trkpt>
      <trkpt lat="47.507506" lon="7.765470">
        <ele>362.683208</ele>
        <time>2021-11-07T15:03:08.041Z</time>
      </trkpt>
      <trkpt lat="47.507429" lon="7.765409">
        <ele>362.978656</ele>
        <time>2021-11-07T15:03:09.789Z</time>
      </trkpt>
      <trkpt lat="47.506870" lon="7.765037">
        <ele>364.930196</ele>
        <time>2021-11-07T15:03:28.059Z</time>
      </trkpt>
      <trkpt lat="47.506716" lon="7.764971">
        <ele>365.389491</ele>
        <time>2021-11-07T15:03:31.515Z</time>
      </trkpt>
      <trkpt lat="47.506619" lon="7.764938">
        <ele>365.674620</ele>
        <time>2021-11-07T15:03:34.100Z</time>
      </trkpt>
      <trkpt lat="47.506377" lon="7.764894">
        <ele>366.373111</ele>
        <time>2021-11-07T15:03:39.802Z</time>
      </trkpt>
      <trkpt lat="47.506301" lon="7.764884">
        <ele>366.591694</ele>
        <time>2021-11-07T15:03:41.246Z</time>
      </trkpt>
      <trkpt lat="47.506143" lon="7.764883">
        <ele>367.044337</ele>
        <time>2021-11-07T15:03:46.068Z</time>
      </trkpt>
      <trkpt lat="47.505115" lon="7.765011">
        <ele>370.088595</ele>
        <time>2021-11-07T15:04:12.013Z</time>
      </trkpt>
      <trkpt lat="47.504400" lon="7.764478">
        <ele>372.727043</ele>
        <time>2021-11-07T15:04:37.197Z</time>
      </trkpt>
      <trkpt lat="47.503736" lon="7.764325">
        <ele>374.941829</ele>
        <time>2021-11-07T15:04:56.926Z</time>
      </trkpt>
      <trkpt lat="47.502578" lon="7.764620">
        <ele>376.436934</ele>
        <time>2021-11-07T15:05:21.415Z</time>
      </trkpt>
      <trkpt lat="47.502400" lon="7.764717">
        <ele>376.634634</ele>
        <time>2021-11-07T15:05:24.448Z</time>
      </trkpt>
      <trkpt lat="47.502299" lon="7.764761">
        <ele>376.744369</ele>
        <time>2021-11-07T15:05:26.030Z</time>
      </trkpt>
      <trkpt lat="47.501861" lon="7.764937">
        <ele>377.214026</ele>
        <time>2021-11-07T15:05:32.238Z</time>
      </trkpt>
      <trkpt lat="47.501785" lon="7.764941">
        <ele>377.243824</ele>
        <time>2021-11-07T15:05:33.454Z</time>
      </trkpt>
      <trkpt lat="47.501717" lon="7.764903">
        <ele>377.272304</ele>
        <time>2021-11-07T15:05:34.368Z</time>
      </trkpt>
      <trkpt lat="47.501402" lon="7.764367">
        <ele>377.460362</ele>
        <time>2021-11-07T15:05:41.924Z</time>
      </trkpt>
      <trkpt lat="47.501345" lon="7.764315">
        <ele>377.486598</ele>
        <time>2021-11-07T15:05:42.707Z</time>
      </trkpt>
      <trkpt lat="47.501281" lon="7.764267">
        <ele>377.514710</ele>
        <time>2021-11-07T15:05:43.900Z</time>
      </trkpt>
      <trkpt lat="47.501196" lon="7.764236">
        <ele>377.549012</ele>
        <time>2021-11-07T15:05:45.198Z</time>
      </trkpt>
      <trkpt lat="47.501035" lon="7.764209">
        <ele>377.612501</ele>
        <time>2021-11-07T15:05:47.726Z</time>
      </trkpt>
      <trkpt lat="47.500820" lon="7.764278">
        <ele>377.698703</ele>
        <time>2021-11-07T15:05:50.718Z</time>
      </trkpt>
      <trkpt lat="47.500727" lon="7.764330">
        <ele>377.737656</ele>
        <time>2021-11-07T15:05:52.932Z</time>
      </trkpt>
      <trkpt lat="47.500387" lon="7.764595">
        <ele>377.888220</ele>
        <time>2021-11-07T15:05:59.458Z</time>
      </trkpt>
      <trkpt lat="47.499963" lon="7.764903">
        <ele>379.162717</ele>
        <time>2021-11-07T15:06:09.308Z</time>
      </trkpt>
      <trkpt lat="47.499733" lon="7.765055">
        <ele>379.948321</ele>
        <time>2021-11-07T15:06:16.278Z</time>
      </trkpt>
      <trkpt lat="47.499422" lon="7.765260">
        <ele>381.010140</ele>
        <time>2021-11-07T15:06:26.299Z</time>
      </trkpt>
      <trkpt lat="47.499360" lon="7.765292">
        <ele>381.214932</ele>
        <time>2021-11-07T15:06:28.560Z</time>
      </trkpt>
      <trkpt lat="47.498800" lon="7.765582">
        <ele>383.065338</ele>
        <time>2021-11-07T15:06:47.103Z</time>
      </trkpt>
      <trkpt lat="47.498586" lon="7.765657">
        <ele>383.855102</ele>
        <time>2021-11-07T15:06:53.540Z</time>
      </trkpt>
      <trkpt lat="47.498351" lon="7.765739">
        <ele>384.956262</ele>
        <time>2021-11-07T15:07:00.847Z</time>
      </trkpt>
      <trkpt lat="47.498155" lon="7.765801">
        <ele>385.870359</ele>
        <time>2021-11-07T15:07:06.794Z</time>
      </trkpt>
      <trkpt lat="47.497958" lon="7.765844">
        <ele>386.778547</ele>
        <time>2021-11-07T15:07:12.861Z</time>
      </trkpt>
      <trkpt lat="47.497754" lon="7.765880">
        <ele>387.715533</ele>
        <time>2021-11-07T15:07:18.985Z</time>
      </trkpt>
      <trkpt lat="47.497723" lon="7.766185">
        <ele>388.665917</ele>
        <time>2021-11-07T15:07:24.957Z</time>
      </trkpt>
      <trkpt lat="47.497675" lon="7.766623">
        <ele>390.033186</ele>
        <time>2021-11-07T15:07:34.121Z</time>
      </trkpt>
      <trkpt lat="47.497649" lon="7.766873">
        <ele>390.812596</ele>
        <time>2021-11-07T15:07:40.249Z</time>
      </trkpt>
      <trkpt lat="47.497611" lon="7.767211">
        <ele>391.963597</ele>
        <time>2021-11-07T15:07:50.700Z</time>
      </trkpt>
      <trkpt lat="47.497511" lon="7.768079">
        <ele>396.539549</ele>
        <time>2021-11-07T15:08:16.571Z</time>
      </trkpt>
      <trkpt lat="47.497361" lon="7.768561">
        <ele>399.297376</ele>
        <time>2021-11-07T15:08:31.537Z</time>
      </trkpt>
      <trkpt lat="47.497291" lon="7.768691">
        <ele>400.161282</ele>
        <time>2021-11-07T15:08:35.956Z</time>
      </trkpt>
      <trkpt lat="47.497192" lon="7.768830">
        <ele>401.210895</ele>
        <time>2021-11-07T15:08:41.225Z</time>
      </trkpt>
      <trkpt lat="47.497103" lon="7.768933">
        <ele>402.079901</ele>
        <time>2021-11-07T15:08:48.071Z</time>
      </trkpt>
      <trkpt lat="47.495667" lon="7.770224">
        <ele>417.184977</ele>
        <time>2021-11-07T15:10:18.584Z</time>
      </trkpt>
      <trkpt lat="47.493379" lon="7.771903">
        <ele>439.646989</ele>
        <time>2021-11-07T15:12:29.686Z</time>
      </trkpt>
      <trkpt lat="47.492787" lon="7.772160">
        <ele>442.951275</ele>
        <time>2021-11-07T15:12:54.966Z</time>
      </trkpt>
      <trkpt lat="47.491693" lon="7.772220">
        <ele>448.732695</ele>
        <time>2021-11-07T15:13:26.875Z</time>
      </trkpt>
      <trkpt lat="47.491378" lon="7.772372">
        <ele>450.226271</ele>
        <time>2021-11-07T15:13:36.043Z</time>
      </trkpt>
      <trkpt lat="47.490979" lon="7.772729">
        <ele>452.328109</ele>
        <time>2021-11-07T15:13:49.592Z</time>
      </trkpt>
      <trkpt lat="47.490789" lon="7.773001">
        <ele>453.519773</ele>
        <time>2021-11-07T15:13:57.567Z</time>
      </trkpt>
      <trkpt lat="47.490600" lon="7.773314">
        <ele>454.798409</ele>
        <time>2021-11-07T15:14:06.768Z</time>
      </trkpt>
      <trkpt lat="47.490509" lon="7.773483">
        <ele>455.456655</ele>
        <time>2021-11-07T15:14:12.035Z</time>
      </trkpt>
      <trkpt lat="47.490333" lon="7.773772">
        <ele>456.977776</ele>
        <time>2021-11-07T15:14:21.495Z</time>
      </trkpt>
      <trkpt lat="47.489507" lon="7.774592">
        <ele>467.829687</ele>
        <time>2021-11-07T15:15:12.901Z</time>
      </trkpt>
      <trkpt lat="47.489299" lon="7.774864">
        <ele>470.858118</ele>
        <time>2021-11-07T15:15:33.932Z</time>
      </trkpt>
      <trkpt lat="47.489027" lon="7.775404">
        <ele>475.823666</ele>
        <time>2021-11-07T15:16:07.397Z</time>
      </trkpt>
      <trkpt lat="47.488856" lon="7.776072">
        <ele>481.872724</ele>
        <time>2021-11-07T15:16:41.436Z</time>
      </trkpt>
      <trkpt lat="47.488821" lon="7.776320">
        <ele>484.029429</ele>
        <time>2021-11-07T15:16:54.439Z</time>
      </trkpt>
      <trkpt lat="47.488804" lon="7.776561">
        <ele>486.092141</ele>
        <time>2021-11-07T15:17:05.677Z</time>
      </trkpt>
      <trkpt lat="47.488828" lon="7.777228">
        <ele>491.778165</ele>
        <time>2021-11-07T15:17:36.161Z</time>
      </trkpt>
      <trkpt lat="47.488939" lon="7.777976">
        <ele>498.297403</ele>
        <time>2021-11-07T15:18:08.288Z</time>
      </trkpt>
      <trkpt lat="47.489070" lon="7.778258">
        <ele>499.655904</ele>
        <time>2021-11-07T15:18:21.037Z</time>
      </trkpt>
      <trkpt lat="47.489510" lon="7.778865">
        <ele>502.563522</ele>
        <time>2021-11-07T15:18:43.601Z</time>
      </trkpt>
      <trkpt lat="47.489751" lon="7.779285">
        <ele>504.363233</ele>
        <time>2021-11-07T15:18:53.206Z</time>
      </trkpt>
      <trkpt lat="47.489935" lon="7.779599">
        <ele>505.720765</ele>
        <time>2021-11-07T15:18:59.845Z</time>
      </trkpt>
      <trkpt lat="47.490085" lon="7.779841">
        <ele>506.793372</ele>
        <time>2021-11-07T15:19:04.786Z</time>
      </trkpt>
      <trkpt lat="47.490300" lon="7.780156">
        <ele>507.879078</ele>
        <time>2021-11-07T15:19:11.551Z</time>
      </trkpt>
      <trkpt lat="47.490637" lon="7.780677">
        <ele>509.219031</ele>
        <time>2021-11-07T15:19:22.094Z</time>
      </trkpt>
      <trkpt lat="47.491131" lon="7.781314">
        <ele>511.020530</ele>
        <time>2021-11-07T15:19:37.054Z</time>
      </trkpt>
      <trkpt lat="47.491257" lon="7.781415">
        <ele>511.414520</ele>
        <time>2021-11-07T15:19:41.462Z</time>
      </trkpt>
      <trkpt lat="47.491593" lon="7.781786">
        <ele>512.936839</ele>
        <time>2021-11-07T15:19:55.296Z</time>
      </trkpt>
      <trkpt lat="47.491764" lon="7.781979">
        <ele>514.440363</ele>
        <time>2021-11-07T15:20:03.987Z</time>
      </trkpt>
      <trkpt lat="47.491932" lon="7.782190">
        <ele>515.980869</ele>
        <time>2021-11-07T15:20:10.141Z</time>
      </trkpt>
      <trkpt lat="47.491994" lon="7.782263">
        <ele>516.534782</ele>
        <time>2021-11-07T15:20:13.053Z</time>
      </trkpt>
      <trkpt lat="47.492051" lon="7.782347">
        <ele>517.097168</ele>
        <time>2021-11-07T15:20:17.372Z</time>
      </trkpt>
      <trkpt lat="47.492170" lon="7.783077">
        <ele>520.644663</ele>
        <time>2021-11-07T15:20:38.193Z</time>
      </trkpt>
      <trkpt lat="47.492224" lon="7.783215">
        <ele>521.398009</ele>
        <time>2021-11-07T15:20:43.596Z</time>
      </trkpt>
      <trkpt lat="47.492208" lon="7.783343">
        <ele>522.012946</ele>
        <time>2021-11-07T15:20:49.303Z</time>
      </trkpt>
      <trkpt lat="47.492115" lon="7.783471">
        <ele>522.900863</ele>
        <time>2021-11-07T15:20:54.593Z</time>
      </trkpt>
      <trkpt lat="47.492008" lon="7.783519">
        <ele>523.682557</ele>
        <time>2021-11-07T15:21:00.587Z</time>
      </trkpt>
      <trkpt lat="47.491443" lon="7.783484">
        <ele>528.613233</ele>
        <time>2021-11-07T15:21:31.117Z</time>
      </trkpt>
      <trkpt lat="47.491316" lon="7.783486">
        <ele>529.818578</ele>
        <time>2021-11-07T15:21:38.910Z</time>
      </trkpt>
      <trkpt lat="47.491026" lon="7.783504">
        <ele>532.573204</ele>
        <time>2021-11-07T15:21:54.198Z</time>
      </trkpt>
      <trkpt lat="47.490801" lon="7.783516">
        <ele>534.709923</ele>
        <time>2021-11-07T15:22:07.320Z</time>
      </trkpt>
      <trkpt lat="47.490527" lon="7.783532">
        <ele>537.312307</ele>
        <time>2021-11-07T15:22:21.258Z</time>
      </trkpt>
      <trkpt lat="47.490609" lon="7.783692">
        <ele>538.600084</ele>
        <time>2021-11-07T15:22:26.586Z</time>
      </trkpt>
      <trkpt lat="47.490633" lon="7.783833">
        <ele>539.532527</ele>
        <time>2021-11-07T15:22:32.167Z</time>
      </trkpt>
      <trkpt lat="47.490689" lon="7.784199">
        <ele>541.939009</ele>
        <time>2021-11-07T15:22:43.557Z</time>
      </trkpt>
      <trkpt lat="47.490723" lon="7.784422">
        <ele>543.451762</ele>
        <time>2021-11-07T15:22:53.111Z</time>
      </trkpt>
      <trkpt lat="47.490860" lon="7.785128">
        <ele>548.315891</ele>
        <time>2021-11-07T15:23:20.179Z</time>
      </trkpt>
      <trkpt lat="47.490876" lon="7.785414">
        <ele>550.216272</ele>
        <time>2021-11-07T15:23:30.719Z</time>
      </trkpt>
      <trkpt lat="47.490808" lon="7.785962">
        <ele>553.905829</ele>
        <time>2021-11-07T15:23:50.317Z</time>
      </trkpt>
      <trkpt lat="47.490637" lon="7.786369">
        <ele>557.079526</ele>
        <time>2021-11-07T15:24:08.817Z</time>
      </trkpt>
      <trkpt lat="47.490588" lon="7.786449">
        <ele>557.794543</ele>
        <time>2021-11-07T15:24:13.919Z</time>
      </trkpt>
      <trkpt lat="47.490524" lon="7.786562">
        <ele>558.770932</ele>
        <time>2021-11-07T15:24:18.555Z</time>
      </trkpt>
      <trkpt lat="47.490217" lon="7.787045">
        <ele>562.894250</ele>
        <time>2021-11-07T15:24:43.283Z</time>
      </trkpt>
      <trkpt lat="47.489788" lon="7.787865">
        <ele>569.245479</ele>
        <time>2021-11-07T15:25:21.365Z</time>
      </trkpt>
      <trkpt lat="47.489723" lon="7.788036">
        <ele>570.447073</ele>
        <time>2021-11-07T15:25:29.767Z</time>
      </trkpt>
      <trkpt lat="47.489691" lon="7.788200">
        <ele>571.492504</ele>
        <time>2021-11-07T15:25:35.787Z</time>
      </trkpt>
      <trkpt lat="47.489663" lon="7.788691">
        <ele>574.510256</ele>
        <time>2021-11-07T15:25:52.111Z</time>
      </trkpt>
      <trkpt lat="47.489823" lon="7.789549">
        <ele>577.289582</ele>
        <time>2021-11-07T15:26:14.858Z</time>
      </trkpt>
      <trkpt lat="47.489925" lon="7.791008">
        <ele>580.361369</ele>
        <time>2021-11-07T15:26:39.323Z</time>
      </trkpt>
      <trkpt lat="47.489971" lon="7.791599">
        <ele>581.416310</ele>
        <time>2021-11-07T15:26:46.287Z</time>
      </trkpt>
      <trkpt lat="47.489987" lon="7.791819">
        <ele>581.207394</ele>
        <time>2021-11-07T15:26:48.778Z</time>
      </trkpt>
      <trkpt lat="47.490118" lon="7.793776">
        <ele>579.350617</ele>
        <time>2021-11-07T15:27:05.572Z</time>
      </trkpt>
      <trkpt lat="47.490137" lon="7.796120">
        <ele>571.214402</ele>
        <time>2021-11-07T15:27:20.398Z</time>
      </trkpt>
      <trkpt lat="47.490229" lon="7.796508">
        <ele>569.566241</ele>
        <time>2021-11-07T15:27:22.841Z</time>
      </trkpt>
      <trkpt lat="47.490482" lon="7.797579">
        <ele>563.828407</ele>
        <time>2021-11-07T15:27:29.576Z</time>
      </trkpt>
      <trkpt lat="47.490613" lon="7.798182">
        <ele>560.366789</ele>
        <time>2021-11-07T15:27:33.284Z</time>
      </trkpt>
      <trkpt lat="47.490919" lon="7.798941">
        <ele>555.536533</ele>
        <time>2021-11-07T15:27:38.511Z</time>
      </trkpt>
      <trkpt lat="47.491125" lon="7.799903">
        <ele>552.271447</ele>
        <time>2021-11-07T15:27:44.742Z</time>
      </trkpt>
      <trkpt lat="47.491207" lon="7.800233">
        <ele>551.510760</ele>
        <time>2021-11-07T15:27:46.990Z</time>
      </trkpt>
      <trkpt lat="47.491266" lon="7.800470">
        <ele>550.964327</ele>
        <time>2021-11-07T15:27:48.764Z</time>
      </trkpt>
      <trkpt lat="47.491393" lon="7.801006">
        <ele>549.735487</ele>
        <time>2021-11-07T15:27:52.777Z</time>
      </trkpt>
      <trkpt lat="47.491405" lon="7.801118">
        <ele>549.490153</ele>
        <time>2021-11-07T15:27:53.545Z</time>
      </trkpt>
      <trkpt lat="47.491420" lon="7.801300">
        <ele>549.093486</ele>
        <time>2021-11-07T15:27:54.973Z</time>
      </trkpt>
      <trkpt lat="47.491399" lon="7.802037">
        <ele>549.043928</ele>
        <time>2021-11-07T15:28:02.955Z</time>
      </trkpt>
      <trkpt lat="47.491604" lon="7.802704">
        <ele>552.468135</ele>
        <time>2021-11-07T15:28:14.419Z</time>
      </trkpt>
      <trkpt lat="47.491641" lon="7.802949">
        <ele>553.641274</ele>
        <time>2021-11-07T15:28:19.723Z</time>
      </trkpt>
      <trkpt lat="47.491627" lon="7.803075">
        <ele>554.237983</ele>
        <time>2021-11-07T15:28:25.201Z</time>
      </trkpt>
      <trkpt lat="47.491556" lon="7.803362">
        <ele>555.666205</ele>
        <time>2021-11-07T15:28:34.424Z</time>
      </trkpt>
      <trkpt lat="47.491486" lon="7.803573">
        <ele>556.764649</ele>
        <time>2021-11-07T15:28:45.597Z</time>
      </trkpt>
      <trkpt lat="47.491467" lon="7.803711">
        <ele>557.422780</ele>
        <time>2021-11-07T15:28:52.580Z</time>
      </trkpt>
      <trkpt lat="47.491463" lon="7.803928">
        <ele>558.437208</ele>
        <time>2021-11-07T15:29:02.043Z</time>
      </trkpt>
      <trkpt lat="47.491423" lon="7.804002">
        <ele>558.880049</ele>
        <time>2021-11-07T15:29:08.867Z</time>
      </trkpt>
      <trkpt lat="47.491177" lon="7.804268">
        <ele>561.311911</ele>
        <time>2021-11-07T15:29:26.172Z</time>
      </trkpt>
      <trkpt lat="47.490972" lon="7.804817">
        <ele>565.940453</ele>
        <time>2021-11-07T15:29:57.192Z</time>
      </trkpt>
      <trkpt lat="47.490914" lon="7.804913">
        <ele>566.890720</ele>
        <time>2021-11-07T15:30:03.634Z</time>
      </trkpt>
      <trkpt lat="47.490692" lon="7.805224">
        <ele>570.229006</ele>
        <time>2021-11-07T15:30:23.055Z</time>
      </trkpt>
      <trkpt lat="47.490528" lon="7.805558">
        <ele>573.275646</ele>
        <time>2021-11-07T15:30:34.749Z</time>
      </trkpt>
      <trkpt lat="47.490509" lon="7.805657">
        <ele>574.035078</ele>
        <time>2021-11-07T15:30:42.182Z</time>
      </trkpt>
      <trkpt lat="47.490507" lon="7.805711">
        <ele>574.434151</ele>
        <time>2021-11-07T15:30:44.172Z</time>
      </trkpt>
      <trkpt lat="47.490538" lon="7.805979">
        <ele>576.440533</ele>
        <time>2021-11-07T15:30:51.186Z</time>
      </trkpt>
      <trkpt lat="47.490574" lon="7.806137">
        <ele>577.670938</ele>
        <time>2021-11-07T15:30:57.144Z</time>
      </trkpt>
      <trkpt lat="47.490633" lon="7.806304">
        <ele>579.061531</ele>
        <time>2021-11-07T15:31:04.691Z</time>
      </trkpt>
      <trkpt lat="47.490886" lon="7.806854">
        <ele>581.737147</ele>
        <time>2021-11-07T15:31:26.937Z</time>
      </trkpt>
      <trkpt lat="47.490987" lon="7.807452">
        <ele>583.682004</ele>
        <time>2021-11-07T15:31:42.529Z</time>
      </trkpt>
      <trkpt lat="47.491021" lon="7.807539">
        <ele>583.999110</ele>
        <time>2021-11-07T15:31:44.808Z</time>
      </trkpt>
      <trkpt lat="47.491259" lon="7.808151">
        <ele>586.227053</ele>
        <time>2021-11-07T15:31:55.431Z</time>
      </trkpt>
      <trkpt lat="47.491350" lon="7.808391">
        <ele>587.095370</ele>
        <time>2021-11-07T15:32:00.067Z</time>
      </trkpt>
      <trkpt lat="47.491452" lon="7.808947">
        <ele>588.839136</ele>
        <time>2021-11-07T15:32:07.539Z</time>
      </trkpt>
      <trkpt lat="47.491490" lon="7.809341">
        <ele>589.886533</ele>
        <time>2021-11-07T15:32:16.169Z</time>
      </trkpt>
      <trkpt lat="47.491540" lon="7.809874">
        <ele>591.302677</ele>
        <time>2021-11-07T15:32:27.899Z</time>
      </trkpt>
      <trkpt lat="47.491544" lon="7.810309">
        <ele>592.447568</ele>
        <time>2021-11-07T15:32:37.800Z</time>
      </trkpt>
      <trkpt lat="47.491483" lon="7.810733">
        <ele>593.588417</ele>
        <time>2021-11-07T15:32:48.148Z</time>
      </trkpt>
      <trkpt lat="47.491462" lon="7.810822">
        <ele>593.836508</ele>
        <time>2021-11-07T15:32:50.294Z</time>
      </trkpt>
      <trkpt lat="47.491417" lon="7.811033">
        <ele>594.418798</ele>
        <time>2021-11-07T15:32:54.302Z</time>
      </trkpt>
      <trkpt lat="47.491356" lon="7.811021">
        <ele>594.658469</ele>
        <time>2021-11-07T15:32:56.797Z</time>
      </trkpt>
      <trkpt lat="47.491305" lon="7.811022">
        <ele>594.857119</ele>
        <time>2021-11-07T15:32:58.378Z</time>
      </trkpt>
      <trkpt lat="47.491210" lon="7.811067">
        <ele>595.245612</ele>
        <time>2021-11-07T15:33:01.831Z</time>
      </trkpt>
      <trkpt lat="47.491168" lon="7.811103">
        <ele>595.434648</ele>
        <time>2021-11-07T15:33:03.985Z</time>
      </trkpt>
      <trkpt lat="47.491099" lon="7.811167">
        <ele>595.711521</ele>
        <time>2021-11-07T15:33:05.316Z</time>
      </trkpt>
      <trkpt lat="47.490921" lon="7.811332">
        <ele>596.411640</ele>
        <time>2021-11-07T15:33:11.498Z</time>
      </trkpt>
      <trkpt lat="47.490608" lon="7.811558">
        <ele>597.572537</ele>
        <time>2021-11-07T15:33:20.682Z</time>
      </trkpt>
      <trkpt lat="47.490230" lon="7.811766">
        <ele>598.916828</ele>
        <time>2021-11-07T15:33:31.341Z</time>
      </trkpt>
      <trkpt lat="47.489734" lon="7.811930">
        <ele>600.610937</ele>
        <time>2021-11-07T15:33:46.604Z</time>
      </trkpt>
      <trkpt lat="47.488654" lon="7.812154">
        <ele>604.373135</ele>
        <time>2021-11-07T15:34:15.568Z</time>
      </trkpt>
      <trkpt lat="47.488525" lon="7.812197">
        <ele>604.834058</ele>
        <time>2021-11-07T15:34:19.942Z</time>
      </trkpt>
      <trkpt lat="47.486782" lon="7.812718">
        <ele>610.168579</ele>
        <time>2021-11-07T15:35:13.117Z</time>
      </trkpt>
      <trkpt lat="47.486531" lon="7.812839">
        <ele>610.847523</ele>
        <time>2021-11-07T15:35:20.066Z</time>
      </trkpt>
      <trkpt lat="47.485925" lon="7.813196">
        <ele>612.089401</ele>
        <time>2021-11-07T15:35:34.057Z</time>
      </trkpt>
      <trkpt lat="47.485144" lon="7.813866">
        <ele>608.155029</ele>
        <time>2021-11-07T15:35:44.066Z</time>
      </trkpt>
      <trkpt lat="47.484810" lon="7.814067">
        <ele>606.583620</ele>
        <time>2021-11-07T15:35:47.275Z</time>
      </trkpt>
      <trkpt lat="47.484732" lon="7.814081">
        <ele>606.241189</ele>
        <time>2021-11-07T15:35:47.925Z</time>
      </trkpt>
      <trkpt lat="47.484689" lon="7.814083">
        <ele>606.053694</ele>
        <time>2021-11-07T15:35:49.027Z</time>
      </trkpt>
      <trkpt lat="47.484558" lon="7.814061">
        <ele>605.479105</ele>
        <time>2021-11-07T15:35:52.735Z</time>
      </trkpt>
      <trkpt lat="47.484474" lon="7.814023">
        <ele>605.096291</ele>
        <time>2021-11-07T15:35:55.127Z</time>
      </trkpt>
      <trkpt lat="47.484375" lon="7.813958">
        <ele>604.624265</ele>
        <time>2021-11-07T15:35:56.018Z</time>
      </trkpt>
      <trkpt lat="47.483867" lon="7.813452">
        <ele>599.131709</ele>
        <time>2021-11-07T15:36:01.479Z</time>
      </trkpt>
      <trkpt lat="47.483804" lon="7.813389">
        <ele>598.436095</ele>
        <time>2021-11-07T15:36:02.107Z</time>
      </trkpt>
      <trkpt lat="47.483708" lon="7.813293">
        <ele>597.376110</ele>
        <time>2021-11-07T15:36:03.121Z</time>
      </trkpt>
      <trkpt lat="47.483493" lon="7.813178">
        <ele>595.284658</ele>
        <time>2021-11-07T15:36:05.080Z</time>
      </trkpt>
      <trkpt lat="47.483220" lon="7.813099">
        <ele>592.739849</ele>
        <time>2021-11-07T15:36:07.525Z</time>
      </trkpt>
      <trkpt lat="47.482949" lon="7.813114">
        <ele>590.258913</ele>
        <time>2021-11-07T15:36:09.842Z</time>
      </trkpt>
      <trkpt lat="47.482420" lon="7.813239">
        <ele>585.912913</ele>
        <time>2021-11-07T15:36:14.512Z</time>
      </trkpt>
      <trkpt lat="47.482097" lon="7.813263">
        <ele>583.559564</ele>
        <time>2021-11-07T15:36:17.400Z</time>
      </trkpt>
      <trkpt lat="47.481920" lon="7.813196">
        <ele>582.230103</ele>
        <time>2021-11-07T15:36:19.104Z</time>
      </trkpt>
      <trkpt lat="47.481456" lon="7.813058">
        <ele>578.786165</ele>
        <time>2021-11-07T15:36:23.537Z</time>
      </trkpt>
      <trkpt lat="47.480872" lon="7.813093">
        <ele>574.306476</ele>
        <time>2021-11-07T15:36:28.866Z</time>
      </trkpt>
      <trkpt lat="47.480713" lon="7.812994">
        <ele>572.417188</ele>
        <time>2021-11-07T15:36:30.344Z</time>
      </trkpt>
      <trkpt lat="47.479735" lon="7.811893">
        <ele>558.958194</ele>
        <time>2021-11-07T15:36:40.809Z</time>
      </trkpt>
      <trkpt lat="47.479687" lon="7.811839">
        <ele>558.297793</ele>
        <time>2021-11-07T15:36:41.299Z</time>
      </trkpt>
      <trkpt lat="47.479473" lon="7.811584">
        <ele>555.288487</ele>
        <time>2021-11-07T15:36:43.625Z</time>
      </trkpt>
      <trkpt lat="47.478943" lon="7.810849">
        <ele>546.223321</ele>
        <time>2021-11-07T15:36:49.714Z</time>
      </trkpt>
      <trkpt lat="47.478809" lon="7.810763">
        <ele>544.400368</ele>
        <time>2021-11-07T15:36:50.918Z</time>
      </trkpt>
      <trkpt lat="47.478566" lon="7.810790">
        <ele>541.359046</ele>
        <time>2021-11-07T15:36:52.975Z</time>
      </trkpt>
      <trkpt lat="47.478335" lon="7.810955">
        <ele>538.157653</ele>
        <time>2021-11-07T15:36:55.107Z</time>
      </trkpt>
      <trkpt lat="47.478231" lon="7.811139">
        <ele>536.134357</ele>
        <time>2021-11-07T15:36:56.485Z</time>
      </trkpt>
      <trkpt lat="47.478204" lon="7.811401">
        <ele>533.898776</ele>
        <time>2021-11-07T15:36:58.079Z</time>
      </trkpt>
      <trkpt lat="47.478262" lon="7.811831">
        <ele>531.066333</ele>
        <time>2021-11-07T15:37:00.642Z</time>
      </trkpt>
      <trkpt lat="47.478245" lon="7.812069">
        <ele>529.711357</ele>
        <time>2021-11-07T15:37:02.109Z</time>
      </trkpt>
      <trkpt lat="47.478216" lon="7.812137">
        <ele>529.256129</ele>
        <time>2021-11-07T15:37:02.561Z</time>
      </trkpt>
      <trkpt lat="47.478172" lon="7.812240">
        <ele>528.566262</ele>
        <time>2021-11-07T15:37:03.287Z</time>
      </trkpt>
      <trkpt lat="47.477609" lon="7.813223">
        <ele>521.271317</ele>
        <time>2021-11-07T15:37:11.030Z</time>
      </trkpt>
      <trkpt lat="47.477546" lon="7.813318">
        <ele>520.517788</ele>
        <time>2021-11-07T15:37:11.854Z</time>
      </trkpt>
      <trkpt lat="47.477516" lon="7.813359">
        <ele>520.175679</ele>
        <time>2021-11-07T15:37:12.188Z</time>
      </trkpt>
      <trkpt lat="47.477155" lon="7.813696">
        <ele>516.345927</ele>
        <time>2021-11-07T15:37:15.986Z</time>
      </trkpt>
      <trkpt lat="47.476980" lon="7.813791">
        <ele>514.444601</ele>
        <time>2021-11-07T15:37:17.650Z</time>
      </trkpt>
      <trkpt lat="47.476884" lon="7.813858">
        <ele>513.361944</ele>
        <time>2021-11-07T15:37:18.569Z</time>
      </trkpt>
      <trkpt lat="47.476563" lon="7.814189">
        <ele>509.371067</ele>
        <time>2021-11-07T15:37:21.995Z</time>
      </trkpt>
      <trkpt lat="47.476534" lon="7.814226">
        <ele>508.980479</ele>
        <time>2021-11-07T15:37:22.331Z</time>
      </trkpt>
      <trkpt lat="47.476334" lon="7.814450">
        <ele>506.421928</ele>
        <time>2021-11-07T15:37:24.478Z</time>
      </trkpt>
      <trkpt lat="47.476204" lon="7.814552">
        <ele>504.921031</ele>
        <time>2021-11-07T15:37:25.717Z</time>
      </trkpt>
      <trkpt lat="47.476150" lon="7.814569">
        <ele>504.357909</ele>
        <time>2021-11-07T15:37:26.186Z</time>
      </trkpt>
      <trkpt lat="47.476077" lon="7.814575">
        <ele>503.612173</ele>
        <time>2021-11-07T15:37:26.791Z</time>
      </trkpt>
      <trkpt lat="47.475705" lon="7.814474">
        <ele>499.754477</ele>
        <time>2021-11-07T15:37:29.980Z</time>
      </trkpt>
      <trkpt lat="47.475471" lon="7.814482">
        <ele>497.154180</ele>
        <time>2021-11-07T15:37:31.975Z</time>
      </trkpt>
      <trkpt lat="47.475276" lon="7.814567">
        <ele>494.865837</ele>
        <time>2021-11-07T15:37:33.686Z</time>
      </trkpt>
      <trkpt lat="47.475210" lon="7.814595">
        <ele>494.092955</ele>
        <time>2021-11-07T15:37:34.275Z</time>
      </trkpt>
      <trkpt lat="47.474961" lon="7.814741">
        <ele>491.077940</ele>
        <time>2021-11-07T15:37:36.539Z</time>
      </trkpt>
      <trkpt lat="47.474804" lon="7.814845">
        <ele>489.141581</ele>
        <time>2021-11-07T15:37:38.015Z</time>
      </trkpt>
      <trkpt lat="47.474584" lon="7.814993">
        <ele>486.421113</ele>
        <time>2021-11-07T15:37:40.039Z</time>
      </trkpt>
      <trkpt lat="47.474430" lon="7.815154">
        <ele>484.298446</ele>
        <time>2021-11-07T15:37:41.679Z</time>
      </trkpt>
      <trkpt lat="47.474375" lon="7.815394">
        <ele>482.370278</ele>
        <time>2021-11-07T15:37:43.142Z</time>
      </trkpt>
      <trkpt lat="47.474616" lon="7.816226">
        <ele>476.220844</ele>
        <time>2021-11-07T15:37:48.407Z</time>
      </trkpt>
      <trkpt lat="47.474739" lon="7.816928">
        <ele>471.805667</ele>
        <time>2021-11-07T15:37:52.678Z</time>
      </trkpt>
      <trkpt lat="47.474739" lon="7.817281">
        <ele>469.656536</ele>
        <time>2021-11-07T15:37:54.761Z</time>
      </trkpt>
      <trkpt lat="47.474702" lon="7.817367">
        <ele>469.035883</ele>
        <time>2021-11-07T15:37:55.410Z</time>
      </trkpt>
      <trkpt lat="47.474641" lon="7.817509">
        <ele>468.011533</ele>
        <time>2021-11-07T15:37:56.481Z</time>
      </trkpt>
      <trkpt lat="47.474613" lon="7.817546">
        <ele>467.673375</ele>
        <time>2021-11-07T15:37:56.928Z</time>
      </trkpt>
      <trkpt lat="47.474555" lon="7.817587">
        <ele>467.094379</ele>
        <time>2021-11-07T15:37:57.480Z</time>
      </trkpt>
      <trkpt lat="47.474389" lon="7.817613">
        <ele>465.590807</ele>
        <time>2021-11-07T15:37:58.901Z</time>
      </trkpt>
      <trkpt lat="47.474233" lon="7.817507">
        <ele>464.044551</ele>
        <time>2021-11-07T15:38:00.484Z</time>
      </trkpt>
      <trkpt lat="47.474210" lon="7.817475">
        <ele>463.760165</ele>
        <time>2021-11-07T15:38:00.745Z</time>
      </trkpt>
      <trkpt lat="47.474182" lon="7.817417">
        <ele>463.326229</ele>
        <time>2021-11-07T15:38:01.140Z</time>
      </trkpt>
      <trkpt lat="47.473926" lon="7.816632">
        <ele>456.390490</ele>
        <time>2021-11-07T15:38:06.318Z</time>
      </trkpt>
      <trkpt lat="47.473743" lon="7.816298">
        <ele>452.911997</ele>
        <time>2021-11-07T15:38:08.766Z</time>
      </trkpt>
      <trkpt lat="47.473230" lon="7.815705">
        <ele>445.119593</ele>
        <time>2021-11-07T15:38:14.181Z</time>
      </trkpt>
      <trkpt lat="47.472623" lon="7.815140">
        <ele>436.726229</ele>
        <time>2021-11-07T15:38:20.231Z</time>
      </trkpt>
      <trkpt lat="47.472505" lon="7.815033">
        <ele>435.133917</ele>
        <time>2021-11-07T15:38:21.396Z</time>
      </trkpt>
      <trkpt lat="47.472320" lon="7.814860">
        <ele>432.615935</ele>
        <time>2021-11-07T15:38:23.255Z</time>
      </trkpt>
      <trkpt lat="47.471093" lon="7.813407">
        <ele>417.085768</ele>
        <time>2021-11-07T15:38:36.675Z</time>
      </trkpt>
      <trkpt lat="47.470923" lon="7.812993">
        <ele>414.864699</ele>
        <time>2021-11-07T15:38:39.671Z</time>
      </trkpt>
      <trkpt lat="47.470835" lon="7.812891">
        <ele>414.106380</ele>
        <time>2021-11-07T15:38:40.752Z</time>
      </trkpt>
      <trkpt lat="47.470794" lon="7.812878">
        <ele>413.821953</ele>
        <time>2021-11-07T15:38:41.099Z</time>
      </trkpt>
      <trkpt lat="47.470744" lon="7.812887">
        <ele>413.480292</ele>
        <time>2021-11-07T15:38:41.561Z</time>
      </trkpt>
      <trkpt lat="47.470614" lon="7.813052">
        <ele>412.318406</ele>
        <time>2021-11-07T15:38:43.264Z</time>
      </trkpt>
      <trkpt lat="47.470607" lon="7.813259">
        <ele>411.368079</ele>
        <time>2021-11-07T15:38:44.547Z</time>
      </trkpt>
      <trkpt lat="47.470938" lon="7.813871">
        <ele>407.936057</ele>
        <time>2021-11-07T15:38:49.818Z</time>
      </trkpt>
      <trkpt lat="47.470969" lon="7.814299">
        <ele>406.373316</ele>
        <time>2021-11-07T15:38:52.766Z</time>
      </trkpt>
      <trkpt lat="47.470838" lon="7.814669">
        <ele>404.856932</ele>
        <time>2021-11-07T15:38:55.444Z</time>
      </trkpt>
      <trkpt lat="47.470596" lon="7.814760">
        <ele>403.515862</ele>
        <time>2021-11-07T15:38:57.799Z</time>
      </trkpt>
      <trkpt lat="47.470163" lon="7.814758">
        <ele>401.190286</ele>
        <time>2021-11-07T15:39:01.793Z</time>
      </trkpt>
      <trkpt lat="47.469960" lon="7.814754">
        <ele>400.099912</ele>
        <time>2021-11-07T15:39:03.811Z</time>
      </trkpt>
      <trkpt lat="47.469647" lon="7.814557">
        <ele>398.046498</ele>
        <time>2021-11-07T15:39:06.814Z</time>
      </trkpt>
      <trkpt lat="47.469608" lon="7.814504">
        <ele>397.657831</ele>
        <time>2021-11-07T15:39:07.290Z</time>
      </trkpt>
      <trkpt lat="47.469564" lon="7.814419">
        <ele>397.126695</ele>
        <time>2021-11-07T15:39:07.892Z</time>
      </trkpt>
      <trkpt lat="47.469477" lon="7.814056">
        <ele>395.215968</ele>
        <time>2021-11-07T15:39:10.256Z</time>
      </trkpt>
      <trkpt lat="47.469471" lon="7.813955">
        <ele>394.712964</ele>
        <time>2021-11-07T15:39:10.830Z</time>
      </trkpt>
      <trkpt lat="47.469445" lon="7.813683">
        <ele>393.350113</ele>
        <time>2021-11-07T15:39:12.462Z</time>
      </trkpt>
      <trkpt lat="47.469382" lon="7.813432">
        <ele>392.021801</ele>
        <time>2021-11-07T15:39:14.025Z</time>
      </trkpt>
      <trkpt lat="47.469261" lon="7.813214">
        <ele>390.622406</ele>
        <time>2021-11-07T15:39:15.734Z</time>
      </trkpt>
      <trkpt lat="47.468968" lon="7.813033">
        <ele>388.292081</ele>
        <time>2021-11-07T15:39:18.571Z</time>
      </trkpt>
      <trkpt lat="47.468898" lon="7.813028">
        <ele>387.777744</ele>
        <time>2021-11-07T15:39:19.174Z</time>
      </trkpt>
      <trkpt lat="47.468231" lon="7.813117">
        <ele>384.999238</ele>
        <time>2021-11-07T15:39:25.363Z</time>
      </trkpt>
      <trkpt lat="47.468087" lon="7.813122">
        <ele>384.740777</ele>
        <time>2021-11-07T15:39:26.818Z</time>
      </trkpt>
      <trkpt lat="47.468086" lon="7.813195">
        <ele>384.652211</ele>
        <time>2021-11-07T15:39:28.210Z</time>
      </trkpt>
      <trkpt lat="47.468127" lon="7.813409">
        <ele>384.382406</ele>
        <time>2021-11-07T15:39:31.026Z</time>
      </trkpt>
      <trkpt lat="47.468067" lon="7.813570">
        <ele>384.159404</ele>
        <time>2021-11-07T15:39:32.829Z</time>
      </trkpt>
      <trkpt lat="47.467665" lon="7.814198">
        <ele>383.110305</ele>
        <time>2021-11-07T15:39:43.677Z</time>
      </trkpt>
      <trkpt lat="47.467606" lon="7.814322">
        <ele>382.926370</ele>
        <time>2021-11-07T15:39:46.394Z</time>
      </trkpt>
      <trkpt lat="47.467466" lon="7.814485">
        <ele>382.606682</ele>
        <time>2021-11-07T15:39:49.616Z</time>
      </trkpt>
      <trkpt lat="47.467298" lon="7.814679">
        <ele>382.625246</ele>
        <time>2021-11-07T15:39:53.908Z</time>
      </trkpt>
      <trkpt lat="47.467147" lon="7.814867">
        <ele>382.865330</ele>
        <time>2021-11-07T15:39:58.123Z</time>
      </trkpt>
      <trkpt lat="47.466725" lon="7.815327">
        <ele>383.502991</ele>
        <time>2021-11-07T15:40:09.544Z</time>
      </trkpt>
      <trkpt lat="47.466451" lon="7.815802">
        <ele>384.016480</ele>
        <time>2021-11-07T15:40:17.974Z</time>
      </trkpt>
      <trkpt lat="47.466154" lon="7.816449">
        <ele>384.654576</ele>
        <time>2021-11-07T15:40:27.984Z</time>
      </trkpt>
      <trkpt lat="47.465596" lon="7.817682">
        <ele>385.145432</ele>
        <time>2021-11-07T15:40:45.702Z</time>
      </trkpt>
      <trkpt lat="47.465540" lon="7.817799">
        <ele>385.192857</ele>
        <time>2021-11-07T15:40:47.893Z</time>
      </trkpt>
      <trkpt lat="47.465427" lon="7.818003">
        <ele>385.280104</ele>
        <time>2021-11-07T15:40:50.429Z</time>
      </trkpt>
      <trkpt lat="47.465094" lon="7.818643">
        <ele>385.505881</ele>
        <time>2021-11-07T15:40:59.306Z</time>
      </trkpt>
      <trkpt lat="47.464944" lon="7.818901">
        <ele>385.325730</ele>
        <time>2021-11-07T15:41:02.210Z</time>
      </trkpt>
      <trkpt lat="47.464148" lon="7.820076">
        <ele>384.445090</ele>
        <time>2021-11-07T15:41:16.213Z</time>
      </trkpt>
      <trkpt lat="47.464075" lon="7.820248">
        <ele>384.337572</ele>
        <time>2021-11-07T15:41:17.754Z</time>
      </trkpt>
      <trkpt lat="47.464024" lon="7.820468">
        <ele>384.214443</ele>
        <time>2021-11-07T15:41:19.631Z</time>
      </trkpt>
      <trkpt lat="47.463968" lon="7.821340">
        <ele>384.083060</ele>
        <time>2021-11-07T15:41:26.744Z</time>
      </trkpt>
      <trkpt lat="47.463994" lon="7.821731">
        <ele>384.060829</ele>
        <time>2021-11-07T15:41:30.147Z</time>
      </trkpt>
      <trkpt lat="47.464139" lon="7.822287">
        <ele>384.027109</ele>
        <time>2021-11-07T15:41:35.634Z</time>
      </trkpt>
      <trkpt lat="47.464430" lon="7.822777">
        <ele>383.990204</ele>
        <time>2021-11-07T15:41:42.678Z</time>
      </trkpt>
      <trkpt lat="47.464547" lon="7.823498">
        <ele>384.664456</ele>
        <time>2021-11-07T15:41:53.565Z</time>
      </trkpt>
      <trkpt lat="47.464584" lon="7.823833">
        <ele>385.217425</ele>
        <time>2021-11-07T15:41:58.604Z</time>
      </trkpt>
      <trkpt lat="47.464595" lon="7.823957">
        <ele>385.421159</ele>
        <time>2021-11-07T15:42:01.349Z</time>
      </trkpt>
      <trkpt lat="47.464594" lon="7.824922">
        <ele>386.993200</ele>
        <time>2021-11-07T15:42:18.769Z</time>
      </trkpt>
      <trkpt lat="47.464628" lon="7.825179">
        <ele>387.419808</ele>
        <time>2021-11-07T15:42:23.922Z</time>
      </trkpt>
      <trkpt lat="47.464699" lon="7.825356">
        <ele>387.755087</ele>
        <time>2021-11-07T15:42:26.895Z</time>
      </trkpt>
      <trkpt lat="47.464779" lon="7.825573">
        <ele>388.157738</ele>
        <time>2021-11-07T15:42:32.094Z</time>
      </trkpt>
      <trkpt lat="47.464807" lon="7.825786">
        <ele>388.388033</ele>
        <time>2021-11-07T15:42:35.063Z</time>
      </trkpt>
      <trkpt lat="47.464811" lon="7.826774">
        <ele>389.029276</ele>
        <time>2021-11-07T15:42:50.144Z</time>
      </trkpt>
      <trkpt lat="47.464811" lon="7.826880">
        <ele>389.098072</ele>
        <time>2021-11-07T15:42:51.059Z</time>
      </trkpt>
      <trkpt lat="47.464637" lon="7.828262">
        <ele>390.010443</ele>
        <time>2021-11-07T15:43:07.450Z</time>
      </trkpt>
      <trkpt lat="47.464542" lon="7.828898">
        <ele>389.691943</ele>
        <time>2021-11-07T15:43:12.608Z</time>
      </trkpt>
      <trkpt lat="47.464528" lon="7.829016">
        <ele>389.625603</ele>
        <time>2021-11-07T15:43:13.478Z</time>
      </trkpt>
      <trkpt lat="47.464241" lon="7.831019">
        <ele>388.567146</ele>
        <time>2021-11-07T15:43:30.162Z</time>
      </trkpt>
      <trkpt lat="47.464397" lon="7.832586">
        <ele>388.659602</ele>
        <time>2021-11-07T15:43:47.796Z</time>
      </trkpt>
      <trkpt lat="47.464417" lon="7.832774">
        <ele>388.670711</ele>
        <time>2021-11-07T15:43:49.575Z</time>
      </trkpt>
      <trkpt lat="47.464411" lon="7.833016">
        <ele>388.684847</ele>
        <time>2021-11-07T15:43:52.290Z</time>
      </trkpt>
      <trkpt lat="47.464498" lon="7.833566">
        <ele>388.719505</ele>
        <time>2021-11-07T15:43:58.178Z</time>
      </trkpt>
      <trkpt lat="47.464768" lon="7.834327">
        <ele>388.802788</ele>
        <time>2021-11-07T15:44:07.344Z</time>
      </trkpt>
      <trkpt lat="47.464794" lon="7.834565">
        <ele>388.826150</ele>
        <time>2021-11-07T15:44:09.819Z</time>
      </trkpt>
      <trkpt lat="47.464777" lon="7.834644">
        <ele>388.834184</ele>
        <time>2021-11-07T15:44:11.220Z</time>
      </trkpt>
      <trkpt lat="47.464673" lon="7.834652">
        <ele>388.849112</ele>
        <time>2021-11-07T15:44:12.481Z</time>
      </trkpt>
      <trkpt lat="47.464304" lon="7.834739">
        <ele>388.902672</ele>
        <time>2021-11-07T15:44:18.107Z</time>
      </trkpt>
      <trkpt lat="47.464222" lon="7.834780">
        <ele>388.915079</ele>
        <time>2021-11-07T15:44:19.226Z</time>
      </trkpt>
      <trkpt lat="47.464222" lon="7.834781">
        <ele>388.915176</ele>
        <time>2021-11-07T15:44:19.232Z</time>
      </trkpt>
      <trkpt lat="47.464177" lon="7.834863">
        <ele>388.925411</ele>
        <time>2021-11-07T15:44:20.472Z</time>
      </trkpt>
      <trkpt lat="47.464048" lon="7.835487">
        <ele>389.001999</ele>
        <time>2021-11-07T15:44:27.990Z</time>
      </trkpt>
      <trkpt lat="47.464029" lon="7.835540">
        <ele>389.012802</ele>
        <time>2021-11-07T15:44:28.795Z</time>
      </trkpt>
      <trkpt lat="47.464007" lon="7.835605">
        <ele>389.025891</ele>
        <time>2021-11-07T15:44:29.348Z</time>
      </trkpt>
      <trkpt lat="47.463903" lon="7.835720">
        <ele>389.060477</ele>
        <time>2021-11-07T15:44:31.062Z</time>
      </trkpt>
      <trkpt lat="47.463847" lon="7.835742">
        <ele>389.075911</ele>
        <time>2021-11-07T15:44:32.133Z</time>
      </trkpt>
      <trkpt lat="47.463772" lon="7.835747">
        <ele>389.095908</ele>
        <time>2021-11-07T15:44:33.495Z</time>
      </trkpt>
      <trkpt lat="47.463575" lon="7.835732">
        <ele>389.148450</ele>
        <time>2021-11-07T15:44:36.248Z</time>
      </trkpt>
      <trkpt lat="47.463479" lon="7.835717">
        <ele>389.174163</ele>
        <time>2021-11-07T15:44:37.603Z</time>
      </trkpt>
      <trkpt lat="47.463352" lon="7.835770">
        <ele>389.209311</ele>
        <time>2021-11-07T15:44:39.736Z</time>
      </trkpt>
      <trkpt lat="47.463331" lon="7.835778">
        <ele>389.215087</ele>
        <time>2021-11-07T15:44:40.030Z</time>
      </trkpt>
      <trkpt lat="47.463002" lon="7.835961">
        <ele>389.308711</ele>
        <time>2021-11-07T15:44:45.048Z</time>
      </trkpt>
      <trkpt lat="47.462666" lon="7.836201">
        <ele>389.408096</ele>
        <time>2021-11-07T15:44:51.064Z</time>
      </trkpt>
      <trkpt lat="47.462666" lon="7.836201">
        <ele>389.408096</ele>
        <time>2021-11-07T15:44:51.064Z</time>
      </trkpt>
      <trkpt lat="47.462700" lon="7.836337">
        <ele>389.434208</ele>
        <time>2021-11-07T15:44:52.932Z</time>
      </trkpt>
      <trkpt lat="47.462730" lon="7.836472">
        <ele>389.487566</ele>
        <time>2021-11-07T15:44:54.260Z</time>
      </trkpt>
      <trkpt lat="47.462748" lon="7.836556">
        <ele>389.561189</ele>
        <time>2021-11-07T15:44:55.056Z</time>
      </trkpt>
      <trkpt lat="47.462851" lon="7.837404">
        <ele>390.281034</ele>
        <time>2021-11-07T15:45:07.756Z</time>
      </trkpt>
      <trkpt lat="47.462856" lon="7.837506">
        <ele>390.366479</ele>
        <time>2021-11-07T15:45:09.738Z</time>
      </trkpt>
      <trkpt lat="47.462865" lon="7.837711">
        <ele>390.538116</ele>
        <time>2021-11-07T15:45:12.266Z</time>
      </trkpt>
      <trkpt lat="47.462869" lon="7.837866">
        <ele>390.667712</ele>
        <time>2021-11-07T15:45:14.475Z</time>
      </trkpt>
      <trkpt lat="47.462871" lon="7.837954">
        <ele>390.741278</ele>
        <time>2021-11-07T15:45:16.174Z</time>
      </trkpt>
      <trkpt lat="47.462873" lon="7.838016">
        <ele>390.793137</ele>
        <time>2021-11-07T15:45:17.292Z</time>
      </trkpt>
      <trkpt lat="47.462883" lon="7.838488">
        <ele>391.187685</ele>
        <time>2021-11-07T15:45:23.703Z</time>
      </trkpt>
      <trkpt lat="47.462936" lon="7.838934">
        <ele>391.566029</ele>
        <time>2021-11-07T15:45:29.044Z</time>
      </trkpt>
      <trkpt lat="47.462967" lon="7.839047">
        <ele>391.667917</ele>
        <time>2021-11-07T15:45:30.742Z</time>
      </trkpt>
      <trkpt lat="47.462982" lon="7.839106">
        <ele>391.685297</ele>
        <time>2021-11-07T15:45:31.681Z</time>
      </trkpt>
      <trkpt lat="47.463043" lon="7.839292">
        <ele>391.724426</ele>
        <time>2021-11-07T15:45:33.497Z</time>
      </trkpt>
      <trkpt lat="47.463133" lon="7.839561">
        <ele>391.781234</ele>
        <time>2021-11-07T15:45:37.403Z</time>
      </trkpt>
      <trkpt lat="47.463287" lon="7.840028">
        <ele>391.879579</ele>
        <time>2021-11-07T15:45:43.438Z</time>
      </trkpt>
      <trkpt lat="47.463588" lon="7.840904">
        <ele>392.065567</ele>
        <time>2021-11-07T15:45:54.733Z</time>
      </trkpt>
      <trkpt lat="47.463616" lon="7.840992">
        <ele>392.083976</ele>
        <time>2021-11-07T15:45:55.811Z</time>
      </trkpt>
      <trkpt lat="47.463685" lon="7.841203">
        <ele>392.128339</ele>
        <time>2021-11-07T15:45:57.754Z</time>
      </trkpt>
      <trkpt lat="47.463874" lon="7.841863">
        <ele>392.066877</ele>
        <time>2021-11-07T15:46:04.042Z</time>
      </trkpt>
      <trkpt lat="47.463922" lon="7.842123">
        <ele>392.000257</ele>
        <time>2021-11-07T15:46:06.026Z</time>
      </trkpt>
      <trkpt lat="47.463971" lon="7.842355">
        <ele>391.940177</ele>
        <time>2021-11-07T15:46:08.590Z</time>
      </trkpt>
      <trkpt lat="47.464053" lon="7.842690">
        <ele>391.852111</ele>
        <time>2021-11-07T15:46:11.390Z</time>
      </trkpt>
      <trkpt lat="47.464075" lon="7.842774">
        <ele>391.829844</ele>
        <time>2021-11-07T15:46:12.588Z</time>
      </trkpt>
      <trkpt lat="47.464165" lon="7.843130">
        <ele>391.735897</ele>
        <time>2021-11-07T15:46:15.713Z</time>
      </trkpt>
      <trkpt lat="47.464176" lon="7.843178">
        <ele>391.723369</ele>
        <time>2021-11-07T15:46:16.198Z</time>
      </trkpt>
      <trkpt lat="47.464234" lon="7.843434">
        <ele>391.656632</ele>
        <time>2021-11-07T15:46:19.262Z</time>
      </trkpt>
      <trkpt lat="47.464354" lon="7.843960">
        <ele>391.523873</ele>
        <time>2021-11-07T15:46:25.279Z</time>
      </trkpt>
      <trkpt lat="47.464386" lon="7.844088">
        <ele>391.591871</ele>
        <time>2021-11-07T15:46:26.621Z</time>
      </trkpt>
      <trkpt lat="47.464433" lon="7.844273">
        <ele>391.690342</ele>
        <time>2021-11-07T15:46:29.105Z</time>
      </trkpt>
      <trkpt lat="47.464585" lon="7.844988">
        <ele>392.063795</ele>
        <time>2021-11-07T15:46:37.618Z</time>
      </trkpt>
      <trkpt lat="47.464737" lon="7.846119">
        <ele>392.638349</ele>
        <time>2021-11-07T15:46:51.727Z</time>
      </trkpt>
      <trkpt lat="47.464771" lon="7.847028">
        <ele>393.269332</ele>
        <time>2021-11-07T15:47:03.837Z</time>
      </trkpt>
      <trkpt lat="47.464784" lon="7.847333">
        <ele>393.531646</ele>
        <time>2021-11-07T15:47:07.817Z</time>
      </trkpt>
      <trkpt lat="47.464820" lon="7.847644">
        <ele>393.802476</ele>
        <time>2021-11-07T15:47:12.088Z</time>
      </trkpt>
      <trkpt lat="47.464850" lon="7.847870">
        <ele>394.000165</ele>
        <time>2021-11-07T15:47:15.005Z</time>
      </trkpt>
      <trkpt lat="47.464909" lon="7.848219">
        <ele>394.308951</ele>
        <time>2021-11-07T15:47:20.071Z</time>
      </trkpt>
      <trkpt lat="47.464952" lon="7.848443">
        <ele>394.508820</ele>
        <time>2021-11-07T15:47:23.259Z</time>
      </trkpt>
      <trkpt lat="47.465152" lon="7.849351">
        <ele>395.321774</ele>
        <time>2021-11-07T15:47:36.518Z</time>
      </trkpt>
      <trkpt lat="47.465348" lon="7.849875">
        <ele>395.818325</ele>
        <time>2021-11-07T15:47:44.743Z</time>
      </trkpt>
      <trkpt lat="47.465558" lon="7.850405">
        <ele>396.327696</ele>
        <time>2021-11-07T15:47:53.044Z</time>
      </trkpt>
      <trkpt lat="47.465620" lon="7.850585">
        <ele>396.495199</ele>
        <time>2021-11-07T15:47:55.647Z</time>
      </trkpt>
      <trkpt lat="47.465714" lon="7.850917">
        <ele>396.793646</ele>
        <time>2021-11-07T15:48:00.287Z</time>
      </trkpt>
      <trkpt lat="47.465829" lon="7.851383">
        <ele>397.204970</ele>
        <time>2021-11-07T15:48:06.648Z</time>
      </trkpt>
      <trkpt lat="47.465804" lon="7.851399">
        <ele>397.238380</ele>
        <time>2021-11-07T15:48:07.204Z</time>
      </trkpt>
      <trkpt lat="47.465765" lon="7.851501">
        <ele>397.335543</ele>
        <time>2021-11-07T15:48:08.684Z</time>
      </trkpt>
      <trkpt lat="47.465770" lon="7.851542">
        <ele>397.368830</ele>
        <time>2021-11-07T15:48:09.235Z</time>
      </trkpt>
      <trkpt lat="47.465781" lon="7.851575">
        <ele>397.398206</ele>
        <time>2021-11-07T15:48:09.716Z</time>
      </trkpt>
      <trkpt lat="47.465821" lon="7.851619">
        <ele>397.457075</ele>
        <time>2021-11-07T15:48:10.623Z</time>
      </trkpt>
      <trkpt lat="47.465846" lon="7.851625">
        <ele>397.486986</ele>
        <time>2021-11-07T15:48:11.103Z</time>
      </trkpt>
      <trkpt lat="47.465871" lon="7.851620">
        <ele>397.516780</ele>
        <time>2021-11-07T15:48:11.555Z</time>
      </trkpt>
      <trkpt lat="47.465906" lon="7.851776">
        <ele>397.648008</ele>
        <time>2021-11-07T15:48:13.780Z</time>
      </trkpt>
      <trkpt lat="47.466256" lon="7.853287">
        <ele>398.923213</ele>
        <time>2021-11-07T15:48:34.610Z</time>
      </trkpt>
      <trkpt lat="47.466331" lon="7.853936">
        <ele>399.448876</ele>
        <time>2021-11-07T15:48:43.448Z</time>
      </trkpt>
      <trkpt lat="47.466338" lon="7.854554">
        <ele>400.112339</ele>
        <time>2021-11-07T15:48:52.022Z</time>
      </trkpt>
      <trkpt lat="47.466332" lon="7.854775">
        <ele>400.351209</ele>
        <time>2021-11-07T15:48:55.240Z</time>
      </trkpt>
      <trkpt lat="47.466324" lon="7.855062">
        <ele>400.661429</ele>
        <time>2021-11-07T15:48:59.476Z</time>
      </trkpt>
      <trkpt lat="47.466298" lon="7.855895">
        <ele>401.562019</ele>
        <time>2021-11-07T15:49:11.575Z</time>
      </trkpt>
      <trkpt lat="47.466295" lon="7.856234">
        <ele>401.928167</ele>
        <time>2021-11-07T15:49:16.823Z</time>
      </trkpt>
      <trkpt lat="47.466298" lon="7.856354">
        <ele>402.057855</ele>
        <time>2021-11-07T15:49:18.623Z</time>
      </trkpt>
      <trkpt lat="47.466271" lon="7.856363">
        <ele>402.102070</ele>
        <time>2021-11-07T15:49:19.149Z</time>
      </trkpt>
      <trkpt lat="47.466237" lon="7.856421">
        <ele>402.184980</ele>
        <time>2021-11-07T15:49:20.139Z</time>
      </trkpt>
      <trkpt lat="47.466235" lon="7.856461">
        <ele>402.228298</ele>
        <time>2021-11-07T15:49:20.670Z</time>
      </trkpt>
      <trkpt lat="47.466243" lon="7.856497">
        <ele>402.269224</ele>
        <time>2021-11-07T15:49:21.326Z</time>
      </trkpt>
      <trkpt lat="47.466284" lon="7.856540">
        <ele>402.347214</ele>
        <time>2021-11-07T15:49:22.504Z</time>
      </trkpt>
      <trkpt lat="47.466310" lon="7.856541">
        <ele>402.382660</ele>
        <time>2021-11-07T15:49:23.056Z</time>
      </trkpt>
      <trkpt lat="47.466322" lon="7.856655">
        <ele>402.488956</ele>
        <time>2021-11-07T15:49:24.779Z</time>
      </trkpt>
      <trkpt lat="47.466344" lon="7.856945">
        <ele>402.757815</ele>
        <time>2021-11-07T15:49:28.567Z</time>
      </trkpt>
      <trkpt lat="47.466347" lon="7.856973">
        <ele>402.783934</ele>
        <time>2021-11-07T15:49:29.243Z</time>
      </trkpt>
      <trkpt lat="47.466518" lon="7.858022">
        <ele>403.778094</ele>
        <time>2021-11-07T15:49:44.280Z</time>
      </trkpt>
      <trkpt lat="47.466576" lon="7.858236">
        <ele>403.990510</ele>
        <time>2021-11-07T15:49:47.573Z</time>
      </trkpt>
      <trkpt lat="47.466673" lon="7.858620">
        <ele>404.368185</ele>
        <time>2021-11-07T15:49:54.427Z</time>
      </trkpt>
      <trkpt lat="47.466824" lon="7.859137">
        <ele>404.856860</ele>
        <time>2021-11-07T15:50:03.786Z</time>
      </trkpt>
      <trkpt lat="47.466922" lon="7.859398">
        <ele>405.050440</ele>
        <time>2021-11-07T15:50:08.335Z</time>
      </trkpt>
      <trkpt lat="47.467047" lon="7.859682">
        <ele>405.270171</ele>
        <time>2021-11-07T15:50:13.931Z</time>
      </trkpt>
      <trkpt lat="47.467266" lon="7.860107">
        <ele>405.616660</ele>
        <time>2021-11-07T15:50:22.787Z</time>
      </trkpt>
      <trkpt lat="47.467944" lon="7.861300">
        <ele>406.690919</ele>
        <time>2021-11-07T15:50:47.449Z</time>
      </trkpt>
      <trkpt lat="47.468224" lon="7.861805">
        <ele>407.345095</ele>
        <time>2021-11-07T15:50:58.751Z</time>
      </trkpt>
      <trkpt lat="47.468543" lon="7.862357">
        <ele>408.072462</ele>
        <time>2021-11-07T15:51:11.408Z</time>
      </trkpt>
      <trkpt lat="47.468825" lon="7.862900">
        <ele>408.758288</ele>
        <time>2021-11-07T15:51:24.003Z</time>
      </trkpt>
      <trkpt lat="47.468859" lon="7.862978">
        <ele>408.851245</ele>
        <time>2021-11-07T15:51:25.873Z</time>
      </trkpt>
      <trkpt lat="47.468943" lon="7.863195">
        <ele>409.101699</ele>
        <time>2021-11-07T15:51:30.357Z</time>
      </trkpt>
      <trkpt lat="47.468986" lon="7.863323">
        <ele>409.256211</ele>
        <time>2021-11-07T15:51:32.998Z</time>
      </trkpt>
      <trkpt lat="47.469011" lon="7.863405">
        <ele>409.360987</ele>
        <time>2021-11-07T15:51:35.136Z</time>
      </trkpt>
      <trkpt lat="47.469305" lon="7.864692">
        <ele>410.943337</ele>
        <time>2021-11-07T15:52:00.316Z</time>
      </trkpt>
      <trkpt lat="47.469629" lon="7.865918">
        <ele>412.377118</ele>
        <time>2021-11-07T15:52:24.407Z</time>
      </trkpt>
      <trkpt lat="47.469710" lon="7.866208">
        <ele>412.562794</ele>
        <time>2021-11-07T15:52:29.399Z</time>
      </trkpt>
      <trkpt lat="47.469764" lon="7.866452">
        <ele>412.714720</ele>
        <time>2021-11-07T15:52:33.705Z</time>
      </trkpt>
      <trkpt lat="47.469808" lon="7.866690">
        <ele>412.860725</ele>
        <time>2021-11-07T15:52:37.565Z</time>
      </trkpt>
      <trkpt lat="47.469915" lon="7.867494">
        <ele>413.345615</ele>
        <time>2021-11-07T15:52:50.729Z</time>
      </trkpt>
      <trkpt lat="47.470127" lon="7.868484">
        <ele>413.970651</ele>
        <time>2021-11-07T15:53:06.125Z</time>
      </trkpt>
      <trkpt lat="47.470234" lon="7.868884">
        <ele>414.249290</ele>
        <time>2021-11-07T15:53:12.495Z</time>
      </trkpt>
      <trkpt lat="47.470309" lon="7.869201">
        <ele>414.466833</ele>
        <time>2021-11-07T15:53:17.785Z</time>
      </trkpt>
      <trkpt lat="47.470378" lon="7.869626">
        <ele>414.749944</ele>
        <time>2021-11-07T15:53:24.670Z</time>
      </trkpt>
      <trkpt lat="47.470397" lon="7.870147">
        <ele>415.087899</ele>
        <time>2021-11-07T15:53:33.421Z</time>
      </trkpt>
      <trkpt lat="47.470379" lon="7.870338">
        <ele>415.212810</ele>
        <time>2021-11-07T15:53:36.869Z</time>
      </trkpt>
      <trkpt lat="47.470350" lon="7.870570">
        <ele>415.365630</ele>
        <time>2021-11-07T15:53:39.884Z</time>
      </trkpt>
      <trkpt lat="47.470333" lon="7.870669">
        <ele>415.431791</ele>
        <time>2021-11-07T15:53:41.357Z</time>
      </trkpt>
      <trkpt lat="47.470316" lon="7.870753">
        <ele>415.488586</ele>
        <time>2021-11-07T15:53:42.723Z</time>
      </trkpt>
      <trkpt lat="47.470245" lon="7.871088">
        <ele>415.829987</ele>
        <time>2021-11-07T15:53:47.381Z</time>
      </trkpt>
      <trkpt lat="47.470217" lon="7.871214">
        <ele>415.984088</ele>
        <time>2021-11-07T15:53:49.347Z</time>
      </trkpt>
      <trkpt lat="47.470156" lon="7.871491">
        <ele>416.322569</ele>
        <time>2021-11-07T15:53:53.830Z</time>
      </trkpt>
      <trkpt lat="47.469969" lon="7.872276">
        <ele>417.289603</ele>
        <time>2021-11-07T15:54:06.016Z</time>
      </trkpt>
      <trkpt lat="47.469710" lon="7.873249">
        <ele>418.504586</ele>
        <time>2021-11-07T15:54:21.408Z</time>
      </trkpt>
      <trkpt lat="47.469682" lon="7.873326">
        <ele>418.606172</ele>
        <time>2021-11-07T15:54:23.094Z</time>
      </trkpt>
      <trkpt lat="47.469626" lon="7.873477">
        <ele>418.843614</ele>
        <time>2021-11-07T15:54:25.574Z</time>
      </trkpt>
      <trkpt lat="47.469489" lon="7.873809">
        <ele>419.413994</ele>
        <time>2021-11-07T15:54:31.514Z</time>
      </trkpt>
      <trkpt lat="47.469422" lon="7.873965">
        <ele>419.685017</ele>
        <time>2021-11-07T15:54:34.244Z</time>
      </trkpt>
      <trkpt lat="47.469224" lon="7.874328">
        <ele>420.368995</ele>
        <time>2021-11-07T15:54:41.459Z</time>
      </trkpt>
      <trkpt lat="47.469173" lon="7.874432">
        <ele>420.557402</ele>
        <time>2021-11-07T15:54:43.246Z</time>
      </trkpt>
      <trkpt lat="47.469136" lon="7.874516">
        <ele>420.704422</ele>
        <time>2021-11-07T15:54:44.729Z</time>
      </trkpt>
      <trkpt lat="47.469097" lon="7.874606">
        <ele>420.861186</ele>
        <time>2021-11-07T15:54:46.542Z</time>
      </trkpt>
      <trkpt lat="47.469068" lon="7.874689">
        <ele>420.998193</ele>
        <time>2021-11-07T15:54:48.234Z</time>
      </trkpt>
      <trkpt lat="47.469050" lon="7.874738">
        <ele>421.079971</ele>
        <time>2021-11-07T15:54:49.088Z</time>
      </trkpt>
      <trkpt lat="47.468989" lon="7.874967">
        <ele>421.440907</ele>
        <time>2021-11-07T15:54:52.768Z</time>
      </trkpt>
      <trkpt lat="47.468925" lon="7.875205">
        <ele>421.816511</ele>
        <time>2021-11-07T15:54:57.111Z</time>
      </trkpt>
      <trkpt lat="47.468806" lon="7.875696">
        <ele>422.608314</ele>
        <time>2021-11-07T15:55:04.931Z</time>
      </trkpt>
      <trkpt lat="47.468698" lon="7.876140">
        <ele>424.478666</ele>
        <time>2021-11-07T15:55:13.431Z</time>
      </trkpt>
      <trkpt lat="47.468639" lon="7.876439">
        <ele>425.713275</ele>
        <time>2021-11-07T15:55:19.668Z</time>
      </trkpt>
      <trkpt lat="47.468557" lon="7.876917">
        <ele>427.667988</ele>
        <time>2021-11-07T15:55:30.614Z</time>
      </trkpt>
      <trkpt lat="47.468377" lon="7.877826">
        <ele>431.422420</ele>
        <time>2021-11-07T15:56:00.318Z</time>
      </trkpt>
      <trkpt lat="47.468327" lon="7.877957">
        <ele>432.018719</ele>
        <time>2021-11-07T15:56:05.708Z</time>
      </trkpt>
      <trkpt lat="47.468308" lon="7.877998">
        <ele>432.215752</ele>
        <time>2021-11-07T15:56:08.684Z</time>
      </trkpt>
      <trkpt lat="47.468268" lon="7.878083">
        <ele>432.626268</ele>
        <time>2021-11-07T15:56:11.657Z</time>
      </trkpt>
      <trkpt lat="47.468104" lon="7.878354">
        <ele>434.239147</ele>
        <time>2021-11-07T15:56:22.261Z</time>
      </trkpt>
      <trkpt lat="47.468067" lon="7.878427">
        <ele>434.665549</ele>
        <time>2021-11-07T15:56:27.162Z</time>
      </trkpt>
      <trkpt lat="47.467908" lon="7.878819">
        <ele>436.801997</ele>
        <time>2021-11-07T15:56:40.481Z</time>
      </trkpt>
      <trkpt lat="47.467814" lon="7.879126">
        <ele>438.377047</ele>
        <time>2021-11-07T15:56:50.866Z</time>
      </trkpt>
      <trkpt lat="47.467758" lon="7.879308">
        <ele>439.311574</ele>
        <time>2021-11-07T15:56:57.958Z</time>
      </trkpt>
      <trkpt lat="47.467695" lon="7.879712">
        <ele>441.249223</ele>
        <time>2021-11-07T15:57:10.779Z</time>
      </trkpt>
      <trkpt lat="47.467712" lon="7.880819">
        <ele>445.515653</ele>
        <time>2021-11-07T15:57:39.595Z</time>
      </trkpt>
      <trkpt lat="47.467755" lon="7.881902">
        <ele>445.337055</ele>
        <time>2021-11-07T15:57:53.893Z</time>
      </trkpt>
      <trkpt lat="47.467789" lon="7.882188">
        <ele>445.289250</ele>
        <time>2021-11-07T15:57:56.079Z</time>
      </trkpt>
      <trkpt lat="47.467832" lon="7.882502">
        <ele>445.236507</ele>
        <time>2021-11-07T15:57:58.385Z</time>
      </trkpt>
      <trkpt lat="47.467854" lon="7.882590">
        <ele>445.221062</ele>
        <time>2021-11-07T15:57:58.977Z</time>
      </trkpt>
      <trkpt lat="47.468085" lon="7.883534">
        <ele>444.477805</ele>
        <time>2021-11-07T15:58:05.760Z</time>
      </trkpt>
      <trkpt lat="47.468175" lon="7.884477">
        <ele>442.603396</ele>
        <time>2021-11-07T15:58:12.099Z</time>
      </trkpt>
      <trkpt lat="47.468170" lon="7.884753">
        <ele>442.059982</ele>
        <time>2021-11-07T15:58:13.903Z</time>
      </trkpt>
      <trkpt lat="47.468160" lon="7.885131">
        <ele>441.315437</ele>
        <time>2021-11-07T15:58:16.727Z</time>
      </trkpt>
      <trkpt lat="47.468160" lon="7.885412">
        <ele>440.762377</ele>
        <time>2021-11-07T15:58:18.779Z</time>
      </trkpt>
      <trkpt lat="47.468174" lon="7.885724">
        <ele>440.146951</ele>
        <time>2021-11-07T15:58:21.074Z</time>
      </trkpt>
      <trkpt lat="47.468250" lon="7.886308">
        <ele>439.757963</ele>
        <time>2021-11-07T15:58:25.556Z</time>
      </trkpt>
      <trkpt lat="47.468546" lon="7.888014">
        <ele>439.317378</ele>
        <time>2021-11-07T15:58:42.636Z</time>
      </trkpt>
      <trkpt lat="47.468718" lon="7.888938">
        <ele>439.537390</ele>
        <time>2021-11-07T15:58:53.983Z</time>
      </trkpt>
      <trkpt lat="47.468951" lon="7.890216">
        <ele>440.390550</ele>
        <time>2021-11-07T15:59:10.964Z</time>
      </trkpt>
      <trkpt lat="47.469288" lon="7.891996">
        <ele>441.556533</ele>
        <time>2021-11-07T15:59:35.176Z</time>
      </trkpt>
      <trkpt lat="47.469496" lon="7.893085">
        <ele>442.257828</ele>
        <time>2021-11-07T15:59:49.241Z</time>
      </trkpt>
      <trkpt lat="47.469658" lon="7.894567">
        <ele>443.123203</ele>
        <time>2021-11-07T16:00:06.704Z</time>
      </trkpt>
      <trkpt lat="47.469691" lon="7.894970">
        <ele>443.348329</ele>
        <time>2021-11-07T16:00:11.268Z</time>
      </trkpt>
      <trkpt lat="47.469714" lon="7.895204">
        <ele>443.479463</ele>
        <time>2021-11-07T16:00:13.917Z</time>
      </trkpt>
      <trkpt lat="47.469728" lon="7.895384">
        <ele>443.579944</ele>
        <time>2021-11-07T16:00:15.920Z</time>
      </trkpt>
      <trkpt lat="47.469734" lon="7.895575">
        <ele>443.685981</ele>
        <time>2021-11-07T16:00:18.321Z</time>
      </trkpt>
      <trkpt lat="47.469747" lon="7.895922">
        <ele>443.878712</ele>
        <time>2021-11-07T16:00:22.384Z</time>
      </trkpt>
      <trkpt lat="47.469738" lon="7.896220">
        <ele>444.044139</ele>
        <time>2021-11-07T16:00:26.865Z</time>
      </trkpt>
      <trkpt lat="47.469692" lon="7.896826">
        <ele>445.188437</ele>
        <time>2021-11-07T16:00:36.010Z</time>
      </trkpt>
      <trkpt lat="47.469678" lon="7.896938">
        <ele>445.402856</ele>
        <time>2021-11-07T16:00:37.574Z</time>
      </trkpt>
      <trkpt lat="47.469652" lon="7.897139">
        <ele>445.788111</ele>
        <time>2021-11-07T16:00:40.988Z</time>
      </trkpt>
      <trkpt lat="47.469598" lon="7.897405">
        <ele>446.310961</ele>
        <time>2021-11-07T16:00:45.467Z</time>
      </trkpt>
      <trkpt lat="47.469534" lon="7.897638">
        <ele>446.784422</ele>
        <time>2021-11-07T16:00:49.735Z</time>
      </trkpt>
      <trkpt lat="47.469806" lon="7.897795">
        <ele>447.597534</ele>
        <time>2021-11-07T16:00:56.982Z</time>
      </trkpt>
      <trkpt lat="47.469999" lon="7.897879">
        <ele>448.157799</ele>
        <time>2021-11-07T16:01:02.655Z</time>
      </trkpt>
      <trkpt lat="47.471002" lon="7.898222">
        <ele>452.650191</ele>
        <time>2021-11-07T16:01:37.785Z</time>
      </trkpt>
      <trkpt lat="47.471597" lon="7.898344">
        <ele>455.703350</ele>
        <time>2021-11-07T16:01:59.893Z</time>
      </trkpt>
      <trkpt lat="47.471825" lon="7.898370">
        <ele>456.865660</ele>
        <time>2021-11-07T16:02:07.851Z</time>
      </trkpt>
      <trkpt lat="47.471910" lon="7.898392">
        <ele>457.304258</ele>
        <time>2021-11-07T16:02:11.233Z</time>
      </trkpt>
      <trkpt lat="47.473317" lon="7.898945">
        <ele>464.622772</ele>
        <time>2021-11-07T16:03:03.876Z</time>
      </trkpt>
      <trkpt lat="47.473931" lon="7.899567">
        <ele>468.351381</ele>
        <time>2021-11-07T16:03:27.149Z</time>
      </trkpt>
      <trkpt lat="47.474087" lon="7.899774">
        <ele>469.397075</ele>
        <time>2021-11-07T16:03:34.669Z</time>
      </trkpt>
      <trkpt lat="47.474186" lon="7.899915">
        <ele>470.082813</ele>
        <time>2021-11-07T16:03:39.326Z</time>
      </trkpt>
      <trkpt lat="47.474336" lon="7.900125">
        <ele>471.113339</ele>
        <time>2021-11-07T16:03:46.605Z</time>
      </trkpt>
      <trkpt lat="47.474617" lon="7.900560">
        <ele>473.142857</ele>
        <time>2021-11-07T16:04:00.713Z</time>
      </trkpt>
      <trkpt lat="47.474888" lon="7.900841">
        <ele>474.794238</ele>
        <time>2021-11-07T16:04:12.040Z</time>
      </trkpt>
      <trkpt lat="47.475163" lon="7.901034">
        <ele>476.333008</ele>
        <time>2021-11-07T16:04:23.017Z</time>
      </trkpt>
      <trkpt lat="47.475300" lon="7.901112">
        <ele>477.195133</ele>
        <time>2021-11-07T16:04:29.029Z</time>
      </trkpt>
      <trkpt lat="47.476364" lon="7.901870">
        <ele>484.130720</ele>
        <time>2021-11-07T16:05:13.694Z</time>
      </trkpt>
      <trkpt lat="47.476536" lon="7.901977">
        <ele>485.226542</ele>
        <time>2021-11-07T16:05:21.354Z</time>
      </trkpt>
      <trkpt lat="47.476982" lon="7.902234">
        <ele>488.133844</ele>
        <time>2021-11-07T16:05:40.328Z</time>
      </trkpt>
      <trkpt lat="47.478118" lon="7.903075">
        <ele>496.158189</ele>
        <time>2021-11-07T16:06:32.973Z</time>
      </trkpt>
      <trkpt lat="47.478182" lon="7.903109">
        <ele>496.587750</ele>
        <time>2021-11-07T16:06:36.311Z</time>
      </trkpt>
      <trkpt lat="47.478367" lon="7.903166">
        <ele>497.781470</ele>
        <time>2021-11-07T16:06:43.382Z</time>
      </trkpt>
      <trkpt lat="47.480980" lon="7.903461">
        <ele>512.125006</ele>
        <time>2021-11-07T16:08:15.838Z</time>
      </trkpt>
      <trkpt lat="47.481478" lon="7.903693">
        <ele>515.217818</ele>
        <time>2021-11-07T16:08:35.410Z</time>
      </trkpt>
      <trkpt lat="47.481588" lon="7.903776">
        <ele>515.949269</ele>
        <time>2021-11-07T16:08:40.256Z</time>
      </trkpt>
      <trkpt lat="47.481709" lon="7.903892">
        <ele>516.803343</ele>
        <time>2021-11-07T16:08:46.605Z</time>
      </trkpt>
      <trkpt lat="47.482157" lon="7.904346">
        <ele>520.149960</ele>
        <time>2021-11-07T16:09:10.751Z</time>
      </trkpt>
      <trkpt lat="47.482433" lon="7.904538">
        <ele>522.088117</ele>
        <time>2021-11-07T16:09:24.713Z</time>
      </trkpt>
      <trkpt lat="47.483101" lon="7.904680">
        <ele>526.376857</ele>
        <time>2021-11-07T16:09:55.813Z</time>
      </trkpt>
      <trkpt lat="47.483329" lon="7.904705">
        <ele>527.829776</ele>
        <time>2021-11-07T16:10:04.232Z</time>
      </trkpt>
      <trkpt lat="47.483385" lon="7.904708">
        <ele>528.185890</ele>
        <time>2021-11-07T16:10:06.611Z</time>
      </trkpt>
      <trkpt lat="47.484005" lon="7.904793">
        <ele>529.692089</ele>
        <time>2021-11-07T16:10:22.839Z</time>
      </trkpt>
      <trkpt lat="47.484064" lon="7.904808">
        <ele>529.696357</ele>
        <time>2021-11-07T16:10:23.935Z</time>
      </trkpt>
      <trkpt lat="47.484124" lon="7.904824">
        <ele>529.700704</ele>
        <time>2021-11-07T16:10:25.327Z</time>
      </trkpt>
      <trkpt lat="47.484248" lon="7.904856">
        <ele>529.709677</ele>
        <time>2021-11-07T16:10:27.886Z</time>
      </trkpt>
      <trkpt lat="47.484481" lon="7.904947">
        <ele>529.726857</ele>
        <time>2021-11-07T16:10:32.256Z</time>
      </trkpt>
      <trkpt lat="47.484713" lon="7.905133">
        <ele>529.745668</ele>
        <time>2021-11-07T16:10:36.877Z</time>
      </trkpt>
      <trkpt lat="47.484936" lon="7.905289">
        <ele>529.763253</ele>
        <time>2021-11-07T16:10:39.589Z</time>
      </trkpt>
      <trkpt lat="47.485049" lon="7.905336">
        <ele>529.771621</ele>
        <time>2021-11-07T16:10:40.895Z</time>
      </trkpt>
      <trkpt lat="47.485073" lon="7.905345">
        <ele>529.773386</ele>
        <time>2021-11-07T16:10:41.105Z</time>
      </trkpt>
      <trkpt lat="47.485331" lon="7.905337">
        <ele>529.791783</ele>
        <time>2021-11-07T16:10:43.792Z</time>
      </trkpt>
      <trkpt lat="47.485593" lon="7.905145">
        <ele>528.206924</ele>
        <time>2021-11-07T16:10:46.699Z</time>
      </trkpt>
      <trkpt lat="47.486049" lon="7.904262">
        <ele>523.986552</ele>
        <time>2021-11-07T16:10:53.556Z</time>
      </trkpt>
      <trkpt lat="47.486247" lon="7.904043">
        <ele>522.597383</ele>
        <time>2021-11-07T16:10:55.747Z</time>
      </trkpt>
      <trkpt lat="47.486480" lon="7.904016">
        <ele>521.283985</ele>
        <time>2021-11-07T16:10:57.913Z</time>
      </trkpt>
      <trkpt lat="47.486688" lon="7.904238">
        <ele>519.842779</ele>
        <time>2021-11-07T16:11:00.326Z</time>
      </trkpt>
      <trkpt lat="47.486721" lon="7.904326">
        <ele>519.473941</ele>
        <time>2021-11-07T16:11:00.929Z</time>
      </trkpt>
      <trkpt lat="47.486755" lon="7.904487">
        <ele>518.871551</ele>
        <time>2021-11-07T16:11:01.947Z</time>
      </trkpt>
      <trkpt lat="47.486724" lon="7.905485">
        <ele>515.303696</ele>
        <time>2021-11-07T16:11:08.111Z</time>
      </trkpt>
      <trkpt lat="47.486769" lon="7.905976">
        <ele>513.534167</ele>
        <time>2021-11-07T16:11:11.198Z</time>
      </trkpt>
      <trkpt lat="47.486969" lon="7.906583">
        <ele>511.122483</ele>
        <time>2021-11-07T16:11:15.489Z</time>
      </trkpt>
      <trkpt lat="47.487197" lon="7.906946">
        <ele>509.683231</ele>
        <time>2021-11-07T16:11:19.040Z</time>
      </trkpt>
      <trkpt lat="47.487378" lon="7.907191">
        <ele>508.905329</ele>
        <time>2021-11-07T16:11:21.619Z</time>
      </trkpt>
      <trkpt lat="47.487587" lon="7.907459">
        <ele>508.028324</ele>
        <time>2021-11-07T16:11:24.489Z</time>
      </trkpt>
      <trkpt lat="47.487763" lon="7.907711">
        <ele>507.251695</ele>
        <time>2021-11-07T16:11:27.008Z</time>
      </trkpt>
      <trkpt lat="47.488080" lon="7.908344">
        <ele>505.563297</ele>
        <time>2021-11-07T16:11:32.366Z</time>
      </trkpt>
      <trkpt lat="47.488185" lon="7.908663">
        <ele>504.802910</ele>
        <time>2021-11-07T16:11:34.897Z</time>
      </trkpt>
      <trkpt lat="47.488241" lon="7.908835">
        <ele>504.375957</ele>
        <time>2021-11-07T16:11:36.155Z</time>
      </trkpt>
      <trkpt lat="47.488366" lon="7.909318">
        <ele>503.025503</ele>
        <time>2021-11-07T16:11:39.759Z</time>
      </trkpt>
      <trkpt lat="47.488699" lon="7.910498">
        <ele>499.686618</ele>
        <time>2021-11-07T16:11:48.280Z</time>
      </trkpt>
      <trkpt lat="47.488908" lon="7.911009">
        <ele>498.127030</ele>
        <time>2021-11-07T16:11:52.116Z</time>
      </trkpt>
      <trkpt lat="47.489040" lon="7.911300">
        <ele>497.252644</ele>
        <time>2021-11-07T16:11:54.328Z</time>
      </trkpt>
      <trkpt lat="47.489216" lon="7.911685">
        <ele>496.196649</ele>
        <time>2021-11-07T16:11:57.417Z</time>
      </trkpt>
      <trkpt lat="47.489607" lon="7.912646">
        <ele>493.648250</ele>
        <time>2021-11-07T16:12:04.930Z</time>
      </trkpt>
      <trkpt lat="47.489843" lon="7.913398">
        <ele>491.764614</ele>
        <time>2021-11-07T16:12:10.802Z</time>
      </trkpt>
      <trkpt lat="47.489922" lon="7.913738">
        <ele>491.109575</ele>
        <time>2021-11-07T16:12:13.513Z</time>
      </trkpt>
      <trkpt lat="47.489951" lon="7.913893">
        <ele>490.855587</ele>
        <time>2021-11-07T16:12:14.706Z</time>
      </trkpt>
      <trkpt lat="47.489987" lon="7.914083">
        <ele>490.543963</ele>
        <time>2021-11-07T16:12:16.177Z</time>
      </trkpt>
      <trkpt lat="47.490283" lon="7.915612">
        <ele>488.032206</ele>
        <time>2021-11-07T16:12:27.721Z</time>
      </trkpt>
      <trkpt lat="47.490429" lon="7.916164">
        <ele>487.022383</ele>
        <time>2021-11-07T16:12:31.968Z</time>
      </trkpt>
      <trkpt lat="47.490607" lon="7.916690">
        <ele>485.710325</ele>
        <time>2021-11-07T16:12:36.177Z</time>
      </trkpt>
      <trkpt lat="47.490822" lon="7.917158">
        <ele>484.448135</ele>
        <time>2021-11-07T16:12:40.093Z</time>
      </trkpt>
      <trkpt lat="47.491324" lon="7.917985">
        <ele>481.968696</ele>
        <time>2021-11-07T16:12:47.544Z</time>
      </trkpt>
      <trkpt lat="47.492227" lon="7.918989">
        <ele>477.001400</ele>
        <time>2021-11-07T16:12:58.395Z</time>
      </trkpt>
      <trkpt lat="47.492584" lon="7.919482">
        <ele>474.744849</ele>
        <time>2021-11-07T16:13:03.001Z</time>
      </trkpt>
      <trkpt lat="47.492813" lon="7.919900">
        <ele>473.064446</ele>
        <time>2021-11-07T16:13:06.427Z</time>
      </trkpt>
      <trkpt lat="47.493132" lon="7.920716">
        <ele>470.345385</ele>
        <time>2021-11-07T16:13:12.483Z</time>
      </trkpt>
      <trkpt lat="47.493236" lon="7.921091">
        <ele>469.177533</ele>
        <time>2021-11-07T16:13:15.108Z</time>
      </trkpt>
      <trkpt lat="47.493307" lon="7.921373">
        <ele>468.310514</ele>
        <time>2021-11-07T16:13:17.083Z</time>
      </trkpt>
      <trkpt lat="47.493397" lon="7.921760">
        <ele>467.131366</ele>
        <time>2021-11-07T16:13:19.789Z</time>
      </trkpt>
      <trkpt lat="47.493708" lon="7.923049">
        <ele>463.638285</ele>
        <time>2021-11-07T16:13:28.978Z</time>
      </trkpt>
      <trkpt lat="47.494034" lon="7.924101">
        <ele>460.996229</ele>
        <time>2021-11-07T16:13:36.918Z</time>
      </trkpt>
      <trkpt lat="47.494438" lon="7.925289">
        <ele>457.799031</ele>
        <time>2021-11-07T16:13:45.996Z</time>
      </trkpt>
      <trkpt lat="47.494515" lon="7.925509">
        <ele>457.164373</ele>
        <time>2021-11-07T16:13:47.607Z</time>
      </trkpt>
      <trkpt lat="47.494945" lon="7.926765">
        <ele>453.557659</ele>
        <time>2021-11-07T16:13:56.987Z</time>
      </trkpt>
      <trkpt lat="47.495031" lon="7.927006">
        <ele>452.859526</ele>
        <time>2021-11-07T16:13:58.707Z</time>
      </trkpt>
      <trkpt lat="47.495268" lon="7.927740">
        <ele>451.069979</ele>
        <time>2021-11-07T16:14:04.079Z</time>
      </trkpt>
      <trkpt lat="47.495455" lon="7.928595">
        <ele>449.170057</ele>
        <time>2021-11-07T16:14:10.212Z</time>
      </trkpt>
      <trkpt lat="47.495530" lon="7.929063">
        <ele>448.153200</ele>
        <time>2021-11-07T16:14:13.520Z</time>
      </trkpt>
      <trkpt lat="47.495562" lon="7.929221">
        <ele>447.804485</ele>
        <time>2021-11-07T16:14:14.765Z</time>
      </trkpt>
      <trkpt lat="47.495622" lon="7.929400">
        <ele>447.382048</ele>
        <time>2021-11-07T16:14:16.272Z</time>
      </trkpt>
      <trkpt lat="47.495801" lon="7.929891">
        <ele>446.526041</ele>
        <time>2021-11-07T16:14:20.411Z</time>
      </trkpt>
      <trkpt lat="47.495985" lon="7.930428">
        <ele>445.906727</ele>
        <time>2021-11-07T16:14:24.804Z</time>
      </trkpt>
      <trkpt lat="47.496051" lon="7.930607">
        <ele>445.696980</ele>
        <time>2021-11-07T16:14:26.395Z</time>
      </trkpt>
      <trkpt lat="47.496117" lon="7.930763">
        <ele>445.507660</ele>
        <time>2021-11-07T16:14:27.781Z</time>
      </trkpt>
      <trkpt lat="47.496162" lon="7.930842">
        <ele>445.401378</ele>
        <time>2021-11-07T16:14:28.652Z</time>
      </trkpt>
      <trkpt lat="47.496205" lon="7.930904">
        <ele>445.309989</ele>
        <time>2021-11-07T16:14:29.277Z</time>
      </trkpt>
      <trkpt lat="47.496424" lon="7.931075">
        <ele>444.933041</ele>
        <time>2021-11-07T16:14:32.635Z</time>
      </trkpt>
      <trkpt lat="47.496998" lon="7.931330">
        <ele>444.006337</ele>
        <time>2021-11-07T16:14:40.210Z</time>
      </trkpt>
      <trkpt lat="47.497104" lon="7.931414">
        <ele>443.787632</ele>
        <time>2021-11-07T16:14:41.625Z</time>
      </trkpt>
      <trkpt lat="47.497221" lon="7.931528">
        <ele>443.532840</ele>
        <time>2021-11-07T16:14:43.278Z</time>
      </trkpt>
      <trkpt lat="47.497430" lon="7.931757">
        <ele>443.059846</ele>
        <time>2021-11-07T16:14:46.122Z</time>
      </trkpt>
      <trkpt lat="47.497676" lon="7.932013">
        <ele>442.512856</ele>
        <time>2021-11-07T16:14:49.283Z</time>
      </trkpt>
      <trkpt lat="47.497907" lon="7.932254">
        <ele>441.998787</ele>
        <time>2021-11-07T16:14:52.378Z</time>
      </trkpt>
      <trkpt lat="47.498068" lon="7.932426">
        <ele>441.637621</ele>
        <time>2021-11-07T16:14:54.515Z</time>
      </trkpt>
      <trkpt lat="47.498138" lon="7.932522">
        <ele>441.464040</ele>
        <time>2021-11-07T16:14:55.518Z</time>
      </trkpt>
      <trkpt lat="47.498196" lon="7.932613">
        <ele>441.310300</ele>
        <time>2021-11-07T16:14:56.427Z</time>
      </trkpt>
      <trkpt lat="47.498391" lon="7.932972">
        <ele>440.765481</ele>
        <time>2021-11-07T16:14:59.935Z</time>
      </trkpt>
      <trkpt lat="47.498431" lon="7.932995">
        <ele>440.708569</ele>
        <time>2021-11-07T16:15:00.424Z</time>
      </trkpt>
      <trkpt lat="47.498481" lon="7.933011">
        <ele>440.640724</ele>
        <time>2021-11-07T16:15:00.976Z</time>
      </trkpt>
      <trkpt lat="47.498718" lon="7.932888">
        <ele>440.307641</ele>
        <time>2021-11-07T16:15:03.917Z</time>
      </trkpt>
      <trkpt lat="47.498925" lon="7.932781">
        <ele>440.016847</ele>
        <time>2021-11-07T16:15:06.579Z</time>
      </trkpt>
      <trkpt lat="47.498997" lon="7.932758">
        <ele>439.919158</ele>
        <time>2021-11-07T16:15:07.374Z</time>
      </trkpt>
      <trkpt lat="47.499088" lon="7.932741">
        <ele>439.797512</ele>
        <time>2021-11-07T16:15:08.571Z</time>
      </trkpt>
      <trkpt lat="47.499264" lon="7.932759">
        <ele>439.563535</ele>
        <time>2021-11-07T16:15:10.732Z</time>
      </trkpt>
      <trkpt lat="47.499354" lon="7.932769">
        <ele>439.443837</ele>
        <time>2021-11-07T16:15:11.727Z</time>
      </trkpt>
      <trkpt lat="47.499421" lon="7.932805">
        <ele>439.349304</ele>
        <time>2021-11-07T16:15:12.595Z</time>
      </trkpt>
      <trkpt lat="47.499538" lon="7.932868">
        <ele>439.184184</ele>
        <time>2021-11-07T16:15:13.999Z</time>
      </trkpt>
      <trkpt lat="47.499822" lon="7.933272">
        <ele>438.661781</ele>
        <time>2021-11-07T16:15:18.546Z</time>
      </trkpt>
      <trkpt lat="47.499993" lon="7.933864">
        <ele>438.322312</ele>
        <time>2021-11-07T16:15:24.005Z</time>
      </trkpt>
      <trkpt lat="47.500034" lon="7.933965">
        <ele>438.287870</ele>
        <time>2021-11-07T16:15:24.891Z</time>
      </trkpt>
      <trkpt lat="47.500007" lon="7.933994">
        <ele>438.273437</ele>
        <time>2021-11-07T16:15:25.368Z</time>
      </trkpt>
      <trkpt lat="47.499971" lon="7.934127">
        <ele>438.231557</ele>
        <time>2021-11-07T16:15:27.017Z</time>
      </trkpt>
      <trkpt lat="47.499976" lon="7.934175">
        <ele>438.217361</ele>
        <time>2021-11-07T16:15:27.675Z</time>
      </trkpt>
      <trkpt lat="47.499991" lon="7.934221">
        <ele>438.202431</ele>
        <time>2021-11-07T16:15:28.062Z</time>
      </trkpt>
      <trkpt lat="47.500077" lon="7.934300">
        <ele>438.158640</ele>
        <time>2021-11-07T16:15:29.302Z</time>
      </trkpt>
      <trkpt lat="47.500111" lon="7.934299">
        <ele>438.143926</ele>
        <time>2021-11-07T16:15:29.840Z</time>
      </trkpt>
      <trkpt lat="47.500150" lon="7.934279">
        <ele>438.126069</ele>
        <time>2021-11-07T16:15:30.384Z</time>
      </trkpt>
      <trkpt lat="47.500213" lon="7.934131">
        <ele>438.074938</ele>
        <time>2021-11-07T16:15:32.642Z</time>
      </trkpt>
      <trkpt lat="47.500208" lon="7.934071">
        <ele>438.057267</ele>
        <time>2021-11-07T16:15:33.380Z</time>
      </trkpt>
      <trkpt lat="47.500275" lon="7.934029">
        <ele>438.025787</ele>
        <time>2021-11-07T16:15:34.258Z</time>
      </trkpt>
      <trkpt lat="47.500352" lon="7.933976">
        <ele>437.989046</ele>
        <time>2021-11-07T16:15:35.536Z</time>
      </trkpt>
      <trkpt lat="47.500386" lon="7.933937">
        <ele>437.970436</ele>
        <time>2021-11-07T16:15:36.178Z</time>
      </trkpt>
      <trkpt lat="47.500435" lon="7.933872">
        <ele>437.941968</ele>
        <time>2021-11-07T16:15:37.249Z</time>
      </trkpt>
      <trkpt lat="47.500843" lon="7.933102">
        <ele>437.653448</ele>
        <time>2021-11-07T16:15:46.494Z</time>
      </trkpt>
      <trkpt lat="47.500990" lon="7.932950">
        <ele>437.514306</ele>
        <time>2021-11-07T16:15:48.989Z</time>
      </trkpt>
      <trkpt lat="47.501075" lon="7.932885">
        <ele>437.440067</ele>
        <time>2021-11-07T16:15:50.026Z</time>
      </trkpt>
      <trkpt lat="47.501463" lon="7.932668">
        <ele>437.118218</ele>
        <time>2021-11-07T16:15:55.027Z</time>
      </trkpt>
      <trkpt lat="47.501794" lon="7.932466">
        <ele>436.840401</ele>
        <time>2021-11-07T16:15:59.699Z</time>
      </trkpt>
      <trkpt lat="47.501901" lon="7.932351">
        <ele>436.737795</ele>
        <time>2021-11-07T16:16:01.767Z</time>
      </trkpt>
      <trkpt lat="47.502023" lon="7.932158">
        <ele>436.599237</ele>
        <time>2021-11-07T16:16:03.813Z</time>
      </trkpt>
      <trkpt lat="47.502400" lon="7.931256">
        <ele>436.039029</ele>
        <time>2021-11-07T16:16:12.800Z</time>
      </trkpt>
      <trkpt lat="47.502613" lon="7.930856">
        <ele>435.766957</ele>
        <time>2021-11-07T16:16:16.884Z</time>
      </trkpt>
      <trkpt lat="47.502761" lon="7.930610">
        <ele>435.590991</ele>
        <time>2021-11-07T16:16:19.789Z</time>
      </trkpt>
      <trkpt lat="47.503014" lon="7.930220">
        <ele>435.302160</ele>
        <time>2021-11-07T16:16:24.511Z</time>
      </trkpt>
      <trkpt lat="47.503485" lon="7.929688">
        <ele>434.823865</ele>
        <time>2021-11-07T16:16:32.400Z</time>
      </trkpt>
      <trkpt lat="47.503528" lon="7.929650">
        <ele>434.732067</ele>
        <time>2021-11-07T16:16:32.887Z</time>
      </trkpt>
      <trkpt lat="47.503598" lon="7.929585">
        <ele>434.580600</ele>
        <time>2021-11-07T16:16:34.317Z</time>
      </trkpt>
      <trkpt lat="47.503815" lon="7.929426">
        <ele>434.136774</ele>
        <time>2021-11-07T16:16:37.039Z</time>
      </trkpt>
      <trkpt lat="47.504005" lon="7.929312">
        <ele>433.760979</ele>
        <time>2021-11-07T16:16:40.159Z</time>
      </trkpt>
      <trkpt lat="47.504650" lon="7.928941">
        <ele>432.492565</ele>
        <time>2021-11-07T16:16:48.127Z</time>
      </trkpt>
      <trkpt lat="47.504724" lon="7.928871">
        <ele>432.331592</ele>
        <time>2021-11-07T16:16:48.998Z</time>
      </trkpt>
      <trkpt lat="47.504799" lon="7.928777">
        <ele>432.151459</ele>
        <time>2021-11-07T16:16:49.895Z</time>
      </trkpt>
      <trkpt lat="47.505253" lon="7.928170">
        <ele>430.529146</ele>
        <time>2021-11-07T16:16:56.318Z</time>
      </trkpt>
      <trkpt lat="47.505814" lon="7.927657">
        <ele>428.142690</ele>
        <time>2021-11-07T16:17:02.726Z</time>
      </trkpt>
      <trkpt lat="47.505868" lon="7.927611">
        <ele>427.917211</ele>
        <time>2021-11-07T16:17:03.297Z</time>
      </trkpt>
      <trkpt lat="47.505881" lon="7.927601">
        <ele>427.864190</ele>
        <time>2021-11-07T16:17:03.435Z</time>
      </trkpt>
      <trkpt lat="47.506112" lon="7.927414">
        <ele>426.911337</ele>
        <time>2021-11-07T16:17:05.953Z</time>
      </trkpt>
      <trkpt lat="47.507856" lon="7.925990">
        <ele>420.992951</ele>
        <time>2021-11-07T16:17:26.433Z</time>
      </trkpt>
      <trkpt lat="47.508002" lon="7.925879">
        <ele>420.542650</ele>
        <time>2021-11-07T16:17:28.212Z</time>
      </trkpt>
      <trkpt lat="47.508106" lon="7.925799">
        <ele>420.221095</ele>
        <time>2021-11-07T16:17:29.566Z</time>
      </trkpt>
      <trkpt lat="47.508355" lon="7.925609">
        <ele>419.558869</ele>
        <time>2021-11-07T16:17:32.674Z</time>
      </trkpt>
      <trkpt lat="47.508667" lon="7.925295">
        <ele>418.693814</ele>
        <time>2021-11-07T16:17:36.864Z</time>
      </trkpt>
      <trkpt lat="47.509016" lon="7.924882">
        <ele>417.669336</ele>
        <time>2021-11-07T16:17:41.565Z</time>
      </trkpt>
      <trkpt lat="47.509032" lon="7.924863">
        <ele>417.622305</ele>
        <time>2021-11-07T16:17:41.767Z</time>
      </trkpt>
      <trkpt lat="47.509223" lon="7.924628">
        <ele>417.052850</ele>
        <time>2021-11-07T16:17:44.441Z</time>
      </trkpt>
      <trkpt lat="47.509572" lon="7.924311">
        <ele>416.114001</ele>
        <time>2021-11-07T16:17:48.796Z</time>
      </trkpt>
      <trkpt lat="47.509605" lon="7.924290">
        <ele>416.031640</ele>
        <time>2021-11-07T16:17:49.132Z</time>
      </trkpt>
      <trkpt lat="47.509676" lon="7.924247">
        <ele>415.881082</ele>
        <time>2021-11-07T16:17:49.923Z</time>
      </trkpt>
      <trkpt lat="47.509806" lon="7.924174">
        <ele>415.629599</ele>
        <time>2021-11-07T16:17:51.525Z</time>
      </trkpt>
      <trkpt lat="47.509886" lon="7.924134">
        <ele>415.476870</ele>
        <time>2021-11-07T16:17:52.505Z</time>
      </trkpt>
      <trkpt lat="47.509869" lon="7.923971">
        <ele>415.275367</ele>
        <time>2021-11-07T16:17:53.611Z</time>
      </trkpt>
      <trkpt lat="47.509817" lon="7.923703">
        <ele>414.934699</ele>
        <time>2021-11-07T16:17:55.782Z</time>
      </trkpt>
      <trkpt lat="47.509668" lon="7.923400">
        <ele>414.476801</ele>
        <time>2021-11-07T16:17:58.480Z</time>
      </trkpt>
      <trkpt lat="47.509595" lon="7.923295">
        <ele>414.292707</ele>
        <time>2021-11-07T16:17:59.716Z</time>
      </trkpt>
      <trkpt lat="47.509550" lon="7.923245">
        <ele>414.190940</ele>
        <time>2021-11-07T16:18:00.388Z</time>
      </trkpt>
      <trkpt lat="47.509583" lon="7.922962">
        <ele>413.840071</ele>
        <time>2021-11-07T16:18:02.447Z</time>
      </trkpt>
      <trkpt lat="47.509615" lon="7.922742">
        <ele>413.565126</ele>
        <time>2021-11-07T16:18:04.338Z</time>
      </trkpt>
      <trkpt lat="47.509688" lon="7.922616">
        <ele>413.362317</ele>
        <time>2021-11-07T16:18:05.484Z</time>
      </trkpt>
      <trkpt lat="47.510639" lon="7.921796">
        <ele>412.048733</ele>
        <time>2021-11-07T16:18:19.042Z</time>
      </trkpt>
      <trkpt lat="47.510872" lon="7.921477">
        <ele>411.762423</ele>
        <time>2021-11-07T16:18:23.140Z</time>
      </trkpt>
      <trkpt lat="47.511052" lon="7.921232">
        <ele>411.541834</ele>
        <time>2021-11-07T16:18:26.267Z</time>
      </trkpt>
      <trkpt lat="47.511067" lon="7.921207">
        <ele>411.521457</ele>
        <time>2021-11-07T16:18:26.537Z</time>
      </trkpt>
      <trkpt lat="47.511186" lon="7.920984">
        <ele>411.348277</ele>
        <time>2021-11-07T16:18:29.033Z</time>
      </trkpt>
      <trkpt lat="47.511371" lon="7.920637">
        <ele>411.065722</ele>
        <time>2021-11-07T16:18:32.724Z</time>
      </trkpt>
      <trkpt lat="47.511613" lon="7.920183">
        <ele>410.490896</ele>
        <time>2021-11-07T16:18:37.595Z</time>
      </trkpt>
      <trkpt lat="47.511632" lon="7.920105">
        <ele>410.408483</ele>
        <time>2021-11-07T16:18:38.342Z</time>
      </trkpt>
      <trkpt lat="47.511883" lon="7.920133">
        <ele>410.038088</ele>
        <time>2021-11-07T16:18:42.471Z</time>
      </trkpt>
      <trkpt lat="47.511964" lon="7.919989">
        <ele>409.851833</ele>
        <time>2021-11-07T16:18:43.927Z</time>
      </trkpt>
      <trkpt lat="47.512085" lon="7.919732">
        <ele>409.540467</ele>
        <time>2021-11-07T16:18:46.317Z</time>
      </trkpt>
      <trkpt lat="47.512255" lon="7.919538">
        <ele>409.224624</ele>
        <time>2021-11-07T16:18:48.744Z</time>
      </trkpt>
      <trkpt lat="47.512664" lon="7.919306">
        <ele>408.580119</ele>
        <time>2021-11-07T16:18:53.632Z</time>
      </trkpt>
      <trkpt lat="47.512938" lon="7.919052">
        <ele>408.019887</ele>
        <time>2021-11-07T16:18:57.197Z</time>
      </trkpt>
      <trkpt lat="47.513058" lon="7.918896">
        <ele>407.727924</ele>
        <time>2021-11-07T16:18:58.921Z</time>
      </trkpt>
      <trkpt lat="47.513160" lon="7.918764">
        <ele>407.480244</ele>
        <time>2021-11-07T16:19:00.398Z</time>
      </trkpt>
      <trkpt lat="47.513378" lon="7.918393">
        <ele>406.873008</ele>
        <time>2021-11-07T16:19:04.061Z</time>
      </trkpt>
      <trkpt lat="47.514255" lon="7.917714">
        <ele>405.102864</ele>
        <time>2021-11-07T16:19:15.135Z</time>
      </trkpt>
      <trkpt lat="47.514561" lon="7.917409">
        <ele>404.690432</ele>
        <time>2021-11-07T16:19:19.447Z</time>
      </trkpt>
      <trkpt lat="47.514635" lon="7.917349">
        <ele>404.596101</ele>
        <time>2021-11-07T16:19:20.390Z</time>
      </trkpt>
      <trkpt lat="47.515014" lon="7.917030">
        <ele>404.108667</ele>
        <time>2021-11-07T16:19:25.754Z</time>
      </trkpt>
      <trkpt lat="47.516391" lon="7.915243">
        <ele>402.239839</ele>
        <time>2021-11-07T16:19:48.456Z</time>
      </trkpt>
      <trkpt lat="47.516544" lon="7.914936">
        <ele>401.998799</ele>
        <time>2021-11-07T16:19:51.627Z</time>
      </trkpt>
      <trkpt lat="47.516569" lon="7.914864">
        <ele>401.947652</ele>
        <time>2021-11-07T16:19:52.406Z</time>
      </trkpt>
      <trkpt lat="47.516590" lon="7.914840">
        <ele>401.922838</ele>
        <time>2021-11-07T16:19:52.722Z</time>
      </trkpt>
      <trkpt lat="47.516626" lon="7.914830">
        <ele>401.888575</ele>
        <time>2021-11-07T16:19:53.200Z</time>
      </trkpt>
      <trkpt lat="47.516662" lon="7.914835">
        <ele>401.854752</ele>
        <time>2021-11-07T16:19:53.633Z</time>
      </trkpt>
      <trkpt lat="47.516748" lon="7.914873">
        <ele>401.770800</ele>
        <time>2021-11-07T16:19:54.704Z</time>
      </trkpt>
      <trkpt lat="47.516806" lon="7.914896">
        <ele>401.714634</ele>
        <time>2021-11-07T16:19:55.407Z</time>
      </trkpt>
      <trkpt lat="47.517140" lon="7.915259">
        <ele>401.315839</ele>
        <time>2021-11-07T16:20:00.528Z</time>
      </trkpt>
      <trkpt lat="47.517281" lon="7.915238">
        <ele>401.172944</ele>
        <time>2021-11-07T16:20:02.315Z</time>
      </trkpt>
      <trkpt lat="47.517688" lon="7.914418">
        <ele>400.479932</ele>
        <time>2021-11-07T16:20:10.619Z</time>
      </trkpt>
      <trkpt lat="47.518348" lon="7.913533">
        <ele>399.575896</ele>
        <time>2021-11-07T16:20:21.529Z</time>
      </trkpt>
      <trkpt lat="47.519421" lon="7.912098">
        <ele>397.998330</ele>
        <time>2021-11-07T16:20:38.949Z</time>
      </trkpt>
      <trkpt lat="47.519536" lon="7.911876">
        <ele>397.792167</ele>
        <time>2021-11-07T16:20:41.232Z</time>
      </trkpt>
      <trkpt lat="47.519720" lon="7.911522">
        <ele>397.531261</ele>
        <time>2021-11-07T16:20:44.887Z</time>
      </trkpt>
      <trkpt lat="47.519891" lon="7.911129">
        <ele>397.288123</ele>
        <time>2021-11-07T16:20:48.712Z</time>
      </trkpt>
      <trkpt lat="47.519997" lon="7.910833">
        <ele>397.113878</ele>
        <time>2021-11-07T16:20:51.369Z</time>
      </trkpt>
      <trkpt lat="47.520493" lon="7.908683">
        <ele>396.294882</ele>
        <time>2021-11-07T16:21:11.655Z</time>
      </trkpt>
      <trkpt lat="47.520738" lon="7.907839">
        <ele>396.275908</ele>
        <time>2021-11-07T16:21:22.161Z</time>
      </trkpt>
      <trkpt lat="47.520733" lon="7.907655">
        <ele>396.272105</ele>
        <time>2021-11-07T16:21:23.770Z</time>
      </trkpt>
      <trkpt lat="47.520551" lon="7.907422">
        <ele>396.264746</ele>
        <time>2021-11-07T16:21:27.821Z</time>
      </trkpt>
      <trkpt lat="47.520506" lon="7.907236">
        <ele>396.260666</ele>
        <time>2021-11-07T16:21:29.501Z</time>
      </trkpt>
      <trkpt lat="47.520515" lon="7.907103">
        <ele>396.257905</ele>
        <time>2021-11-07T16:21:31.263Z</time>
      </trkpt>
      <trkpt lat="47.520528" lon="7.906930">
        <ele>396.231621</ele>
        <time>2021-11-07T16:21:32.953Z</time>
      </trkpt>
      <trkpt lat="47.520566" lon="7.906668">
        <ele>396.001312</ele>
        <time>2021-11-07T16:21:35.231Z</time>
      </trkpt>
      <trkpt lat="47.520678" lon="7.906050">
        <ele>395.451384</ele>
        <time>2021-11-07T16:21:41.067Z</time>
      </trkpt>
      <trkpt lat="47.520989" lon="7.905130">
        <ele>394.567173</ele>
        <time>2021-11-07T16:21:49.369Z</time>
      </trkpt>
      <trkpt lat="47.521297" lon="7.904312">
        <ele>393.376986</ele>
        <time>2021-11-07T16:21:56.111Z</time>
      </trkpt>
      <trkpt lat="47.521446" lon="7.904023">
        <ele>392.473128</ele>
        <time>2021-11-07T16:21:58.679Z</time>
      </trkpt>
      <trkpt lat="47.521792" lon="7.903347">
        <ele>390.364551</ele>
        <time>2021-11-07T16:22:04.263Z</time>
      </trkpt>
      <trkpt lat="47.522013" lon="7.902637">
        <ele>388.421128</ele>
        <time>2021-11-07T16:22:09.436Z</time>
      </trkpt>
      <trkpt lat="47.522038" lon="7.902562">
        <ele>388.213214</ele>
        <time>2021-11-07T16:22:09.958Z</time>
      </trkpt>
      <trkpt lat="47.522065" lon="7.902526">
        <ele>388.079472</ele>
        <time>2021-11-07T16:22:10.290Z</time>
      </trkpt>
      <trkpt lat="47.522132" lon="7.902476">
        <ele>387.803291</ele>
        <time>2021-11-07T16:22:11.032Z</time>
      </trkpt>
      <trkpt lat="47.522260" lon="7.902356">
        <ele>387.246766</ele>
        <time>2021-11-07T16:22:12.517Z</time>
      </trkpt>
      <trkpt lat="47.522554" lon="7.901999">
        <ele>385.863288</ele>
        <time>2021-11-07T16:22:16.185Z</time>
      </trkpt>
      <trkpt lat="47.522688" lon="7.901843">
        <ele>385.243055</ele>
        <time>2021-11-07T16:22:17.778Z</time>
      </trkpt>
      <trkpt lat="47.523036" lon="7.901580">
        <ele>383.821392</ele>
        <time>2021-11-07T16:22:21.564Z</time>
      </trkpt>
      <trkpt lat="47.523340" lon="7.901197">
        <ele>382.369036</ele>
        <time>2021-11-07T16:22:25.525Z</time>
      </trkpt>
      <trkpt lat="47.523433" lon="7.901043">
        <ele>381.861383</ele>
        <time>2021-11-07T16:22:26.914Z</time>
      </trkpt>
      <trkpt lat="47.523567" lon="7.900820">
        <ele>381.127895</ele>
        <time>2021-11-07T16:22:29.014Z</time>
      </trkpt>
      <trkpt lat="47.523620" lon="7.900698">
        <ele>380.794086</ele>
        <time>2021-11-07T16:22:30.116Z</time>
      </trkpt>
      <trkpt lat="47.523648" lon="7.900606">
        <ele>380.742102</ele>
        <time>2021-11-07T16:22:30.801Z</time>
      </trkpt>
      <trkpt lat="47.523739" lon="7.900557">
        <ele>380.668235</ele>
        <time>2021-11-07T16:22:31.857Z</time>
      </trkpt>
      <trkpt lat="47.523878" lon="7.900445">
        <ele>380.547518</ele>
        <time>2021-11-07T16:22:33.823Z</time>
      </trkpt>
      <trkpt lat="47.523957" lon="7.900371">
        <ele>380.476208</ele>
        <time>2021-11-07T16:22:34.854Z</time>
      </trkpt>
      <trkpt lat="47.523989" lon="7.900340">
        <ele>380.447037</ele>
        <time>2021-11-07T16:22:35.320Z</time>
      </trkpt>
      <trkpt lat="47.523945" lon="7.900256">
        <ele>380.392273</ele>
        <time>2021-11-07T16:22:36.398Z</time>
      </trkpt>
      <trkpt lat="47.523890" lon="7.900131">
        <ele>380.315417</ele>
        <time>2021-11-07T16:22:37.812Z</time>
      </trkpt>
      <trkpt lat="47.523861" lon="7.900049">
        <ele>380.267733</ele>
        <time>2021-11-07T16:22:38.709Z</time>
      </trkpt>
      <trkpt lat="47.523896" lon="7.900001">
        <ele>380.231342</ele>
        <time>2021-11-07T16:22:39.265Z</time>
      </trkpt>
      <trkpt lat="47.524309" lon="7.899115">
        <ele>379.676747</ele>
        <time>2021-11-07T16:22:49.090Z</time>
      </trkpt>
      <trkpt lat="47.524360" lon="7.898951">
        <ele>379.583737</ele>
        <time>2021-11-07T16:22:50.793Z</time>
      </trkpt>
      <trkpt lat="47.524617" lon="7.898216">
        <ele>379.365992</ele>
        <time>2021-11-07T16:23:00.003Z</time>
      </trkpt>
      <trkpt lat="47.524834" lon="7.897636">
        <ele>379.287741</ele>
        <time>2021-11-07T16:23:07.192Z</time>
      </trkpt>
      <trkpt lat="47.525518" lon="7.896336">
        <ele>378.850290</ele>
        <time>2021-11-07T16:23:23.277Z</time>
      </trkpt>
      <trkpt lat="47.525590" lon="7.896117">
        <ele>378.479209</ele>
        <time>2021-11-07T16:23:24.915Z</time>
      </trkpt>
      <trkpt lat="47.525622" lon="7.895944">
        <ele>378.205942</ele>
        <time>2021-11-07T16:23:27.043Z</time>
      </trkpt>
      <trkpt lat="47.525631" lon="7.895583">
        <ele>377.655598</ele>
        <time>2021-11-07T16:23:29.431Z</time>
      </trkpt>
      <trkpt lat="47.525631" lon="7.895442">
        <ele>377.440791</ele>
        <time>2021-11-07T16:23:31.167Z</time>
      </trkpt>
      <trkpt lat="47.525603" lon="7.895265">
        <ele>377.163838</ele>
        <time>2021-11-07T16:23:32.515Z</time>
      </trkpt>
      <trkpt lat="47.525725" lon="7.895110">
        <ele>376.801181</ele>
        <time>2021-11-07T16:23:34.036Z</time>
      </trkpt>
      <trkpt lat="47.526257" lon="7.894278">
        <ele>375.055545</ele>
        <time>2021-11-07T16:23:42.232Z</time>
      </trkpt>
      <trkpt lat="47.526335" lon="7.893960">
        <ele>374.476431</ele>
        <time>2021-11-07T16:23:44.565Z</time>
      </trkpt>
      <trkpt lat="47.526401" lon="7.893964">
        <ele>374.308988</ele>
        <time>2021-11-07T16:23:45.201Z</time>
      </trkpt>
      <trkpt lat="47.526451" lon="7.893983">
        <ele>374.178138</ele>
        <time>2021-11-07T16:23:45.934Z</time>
      </trkpt>
      <trkpt lat="47.526504" lon="7.894030">
        <ele>374.021544</ele>
        <time>2021-11-07T16:23:46.603Z</time>
      </trkpt>
      <trkpt lat="47.526709" lon="7.893617">
        <ele>373.144174</ele>
        <time>2021-11-07T16:23:50.029Z</time>
      </trkpt>
      <trkpt lat="47.527011" lon="7.893061">
        <ele>371.922800</ele>
        <time>2021-11-07T16:23:55.034Z</time>
      </trkpt>
      <trkpt lat="47.527498" lon="7.892650">
        <ele>370.501933</ele>
        <time>2021-11-07T16:24:01.107Z</time>
      </trkpt>
      <trkpt lat="47.528003" lon="7.892732">
        <ele>369.916399</ele>
        <time>2021-11-07T16:24:07.357Z</time>
      </trkpt>
      <trkpt lat="47.528331" lon="7.892682">
        <ele>369.538339</ele>
        <time>2021-11-07T16:24:11.625Z</time>
      </trkpt>
      <trkpt lat="47.529235" lon="7.892158">
        <ele>368.426988</ele>
        <time>2021-11-07T16:24:23.324Z</time>
      </trkpt>
      <trkpt lat="47.529695" lon="7.891638">
        <ele>367.891736</ele>
        <time>2021-11-07T16:24:30.385Z</time>
      </trkpt>
      <trkpt lat="47.529714" lon="7.891609">
        <ele>367.866500</ele>
        <time>2021-11-07T16:24:30.648Z</time>
      </trkpt>
      <trkpt lat="47.529972" lon="7.891210">
        <ele>367.521478</ele>
        <time>2021-11-07T16:24:35.074Z</time>
      </trkpt>
      <trkpt lat="47.530322" lon="7.890690">
        <ele>367.062931</ele>
        <time>2021-11-07T16:24:41.223Z</time>
      </trkpt>
      <trkpt lat="47.530606" lon="7.890373">
        <ele>366.795174</ele>
        <time>2021-11-07T16:24:45.931Z</time>
      </trkpt>
      <trkpt lat="47.530930" lon="7.890136">
        <ele>367.021687</ele>
        <time>2021-11-07T16:24:50.907Z</time>
      </trkpt>
      <trkpt lat="47.531076" lon="7.890029">
        <ele>367.123796</ele>
        <time>2021-11-07T16:24:53.679Z</time>
      </trkpt>
      <trkpt lat="47.531265" lon="7.889937">
        <ele>367.248501</ele>
        <time>2021-11-07T16:24:56.765Z</time>
      </trkpt>
      <trkpt lat="47.531560" lon="7.889776">
        <ele>367.445572</ele>
        <time>2021-11-07T16:25:02.414Z</time>
      </trkpt>
      <trkpt lat="47.531843" lon="7.889349">
        <ele>367.698805</ele>
        <time>2021-11-07T16:25:10.001Z</time>
      </trkpt>
      <trkpt lat="47.532011" lon="7.888896">
        <ele>367.952489</ele>
        <time>2021-11-07T16:25:17.196Z</time>
      </trkpt>
      <trkpt lat="47.532288" lon="7.887728">
        <ele>369.408932</ele>
        <time>2021-11-07T16:25:36.042Z</time>
      </trkpt>
      <trkpt lat="47.532505" lon="7.887120">
        <ele>370.218025</ele>
        <time>2021-11-07T16:25:46.329Z</time>
      </trkpt>
      <trkpt lat="47.532650" lon="7.885569">
        <ele>371.787328</ele>
        <time>2021-11-07T16:26:09.091Z</time>
      </trkpt>
      <trkpt lat="47.532658" lon="7.884989">
        <ele>372.288717</ele>
        <time>2021-11-07T16:26:17.278Z</time>
      </trkpt>
      <trkpt lat="47.532670" lon="7.884773">
        <ele>372.476034</ele>
        <time>2021-11-07T16:26:20.581Z</time>
      </trkpt>
      <trkpt lat="47.532699" lon="7.884224">
        <ele>372.951976</ele>
        <time>2021-11-07T16:26:27.696Z</time>
      </trkpt>
      <trkpt lat="47.532713" lon="7.884122">
        <ele>373.041936</ele>
        <time>2021-11-07T16:26:28.860Z</time>
      </trkpt>
      <trkpt lat="47.532859" lon="7.883508">
        <ele>373.198286</ele>
        <time>2021-11-07T16:26:36.471Z</time>
      </trkpt>
      <trkpt lat="47.533014" lon="7.882949">
        <ele>372.934933</ele>
        <time>2021-11-07T16:26:42.691Z</time>
      </trkpt>
      <trkpt lat="47.533374" lon="7.881639">
        <ele>372.318568</ele>
        <time>2021-11-07T16:26:54.403Z</time>
      </trkpt>
      <trkpt lat="47.533606" lon="7.880961">
        <ele>371.243116</ele>
        <time>2021-11-07T16:27:00.198Z</time>
      </trkpt>
      <trkpt lat="47.533892" lon="7.880353">
        <ele>369.629468</ele>
        <time>2021-11-07T16:27:05.515Z</time>
      </trkpt>
      <trkpt lat="47.534616" lon="7.879490">
        <ele>366.632043</ele>
        <time>2021-11-07T16:27:14.685Z</time>
      </trkpt>
      <trkpt lat="47.534908" lon="7.878975">
        <ele>364.358931</ele>
        <time>2021-11-07T16:27:18.887Z</time>
      </trkpt>
      <trkpt lat="47.534946" lon="7.878790">
        <ele>363.655194</ele>
        <time>2021-11-07T16:27:20.163Z</time>
      </trkpt>
      <trkpt lat="47.534825" lon="7.878414">
        <ele>362.139329</ele>
        <time>2021-11-07T16:27:22.689Z</time>
      </trkpt>
      <trkpt lat="47.534778" lon="7.878270">
        <ele>361.557245</ele>
        <time>2021-11-07T16:27:23.841Z</time>
      </trkpt>
      <trkpt lat="47.534855" lon="7.878090">
        <ele>360.781750</ele>
        <time>2021-11-07T16:27:25.092Z</time>
      </trkpt>
      <trkpt lat="47.535088" lon="7.877742">
        <ele>358.998107</ele>
        <time>2021-11-07T16:27:28.187Z</time>
      </trkpt>
      <trkpt lat="47.535322" lon="7.877590">
        <ele>357.620789</ele>
        <time>2021-11-07T16:27:30.684Z</time>
      </trkpt>
      <trkpt lat="47.535551" lon="7.877487">
        <ele>356.421714</ele>
        <time>2021-11-07T16:27:32.838Z</time>
      </trkpt>
      <trkpt lat="47.535635" lon="7.877484">
        <ele>356.087845</ele>
        <time>2021-11-07T16:27:33.775Z</time>
      </trkpt>
      <trkpt lat="47.535770" lon="7.877432">
        <ele>355.533583</ele>
        <time>2021-11-07T16:27:35.027Z</time>
      </trkpt>
      <trkpt lat="47.535851" lon="7.877319">
        <ele>355.091452</ele>
        <time>2021-11-07T16:27:36.057Z</time>
      </trkpt>
      <trkpt lat="47.536444" lon="7.876177">
        <ele>351.226579</ele>
        <time>2021-11-07T16:27:45.436Z</time>
      </trkpt>
      <trkpt lat="47.536632" lon="7.875912">
        <ele>350.195373</ele>
        <time>2021-11-07T16:27:48.085Z</time>
      </trkpt>
      <trkpt lat="47.536757" lon="7.875759">
        <ele>349.551050</ele>
        <time>2021-11-07T16:27:50.032Z</time>
      </trkpt>
      <trkpt lat="47.536921" lon="7.875537">
        <ele>349.238089</ele>
        <time>2021-11-07T16:27:52.599Z</time>
      </trkpt>
      <trkpt lat="47.537182" lon="7.875293">
        <ele>348.822677</ele>
        <time>2021-11-07T16:27:56.309Z</time>
      </trkpt>
      <trkpt lat="47.537261" lon="7.875237">
        <ele>348.704798</ele>
        <time>2021-11-07T16:27:57.270Z</time>
      </trkpt>
      <trkpt lat="47.537716" lon="7.874966">
        <ele>348.044732</ele>
        <time>2021-11-07T16:28:03.159Z</time>
      </trkpt>
      <trkpt lat="47.538278" lon="7.874319">
        <ele>347.089452</ele>
        <time>2021-11-07T16:28:11.634Z</time>
      </trkpt>
      <trkpt lat="47.539222" lon="7.873416">
        <ele>345.762597</ele>
        <time>2021-11-07T16:28:26.080Z</time>
      </trkpt>
      <trkpt lat="47.539678" lon="7.872430">
        <ele>344.985306</ele>
        <time>2021-11-07T16:28:35.161Z</time>
      </trkpt>
      <trkpt lat="47.539841" lon="7.872151">
        <ele>344.985306</ele>
        <time>2021-11-07T16:28:37.931Z</time>
      </trkpt>
      <trkpt lat="47.539930" lon="7.872041">
        <ele>344.985306</ele>
        <time>2021-11-07T16:28:39.127Z</time>
      </trkpt>
      <trkpt lat="47.540034" lon="7.871970">
        <ele>344.985306</ele>
        <time>2021-11-07T16:28:40.395Z</time>
      </trkpt>
      <trkpt lat="47.540216" lon="7.871851">
        <ele>344.985306</ele>
        <time>2021-11-07T16:28:42.572Z</time>
      </trkpt>
      <trkpt lat="47.540265" lon="7.871808">
        <ele>344.985306</ele>
        <time>2021-11-07T16:28:43.178Z</time>
      </trkpt>
      <trkpt lat="47.540463" lon="7.871584">
        <ele>344.985306</ele>
        <time>2021-11-07T16:28:45.964Z</time>
      </trkpt>
      <trkpt lat="47.540693" lon="7.871390">
        <ele>344.985306</ele>
        <time>2021-11-07T16:28:48.838Z</time>
      </trkpt>
      <trkpt lat="47.540894" lon="7.871220">
        <ele>344.985306</ele>
        <time>2021-11-07T16:28:51.344Z</time>
      </trkpt>
      <trkpt lat="47.540933" lon="7.871187">
        <ele>344.985306</ele>
        <time>2021-11-07T16:28:51.818Z</time>
      </trkpt>
      <trkpt lat="47.541100" lon="7.871048">
        <ele>344.985306</ele>
        <time>2021-11-07T16:28:53.990Z</time>
      </trkpt>
    </trkseg>
  </trk>
</gpx>